<?xml version="1.0" encoding="UTF-8" standalone="no" ?>
<gpx xmlns="http://www.topografix.com/GPX/1/1" xmlns:xsi="http://www.w3.org/2001/XMLSchema-instance" xsi:schemaLocation="http://www.topografix.com/GPX/1/1 http://www.topografix.com/GPX/1/1/gpx.xsd" version="1.1" creator="VisuGPX - https://www.visugpx.com">
  <metadata>
    <name>PENE LISE et PENE DE BEDOUT depuis Estupas</name>
    <desc><![CDATA[Superbe boucle avec un parcours en crête magnifique.
Seule la crête demande une attention particulière et il faut parfois s'aider des mains, sans toutefois être de l'escalade. En effet, ce ne sont pas des "prises" qui sont à votre disposition, mais ce que j'appelle carrément des "poignées" tellement elles sont aisées.
]]></desc>
  </metadata>
  <trk>
    <name><![CDATA[PENE LISE et PENE DE BEDOUT depuis Estupas]]></name>
    <trkseg>
      <trkpt lat="42.97542" lon="0.24365">
        <ele>914.35</ele>
        <time>2020-02-22T08:35:25Z</time>
      </trkpt>
      <trkpt lat="42.97552" lon="0.24368">
        <ele>914.83</ele>
        <time>2020-02-22T08:37:22Z</time>
      </trkpt>
      <trkpt lat="42.97551" lon="0.24366">
        <ele>915.31</ele>
        <time>2020-02-22T08:38:40Z</time>
      </trkpt>
      <trkpt lat="42.9754" lon="0.24368">
        <ele>916.27</ele>
        <time>2020-02-22T08:38:51Z</time>
      </trkpt>
      <trkpt lat="42.97529" lon="0.24368">
        <ele>917.72</ele>
        <time>2020-02-22T08:39:00Z</time>
      </trkpt>
      <trkpt lat="42.9752" lon="0.24368">
        <ele>918.68</ele>
        <time>2020-02-22T08:39:09Z</time>
      </trkpt>
      <trkpt lat="42.97512" lon="0.24372">
        <ele>919.64</ele>
        <time>2020-02-22T08:39:18Z</time>
      </trkpt>
      <trkpt lat="42.97505" lon="0.24378">
        <ele>919.64</ele>
        <time>2020-02-22T08:39:27Z</time>
      </trkpt>
      <trkpt lat="42.97495" lon="0.24385">
        <ele>921.08</ele>
        <time>2020-02-22T08:39:37Z</time>
      </trkpt>
      <trkpt lat="42.97488" lon="0.24394">
        <ele>922.04</ele>
        <time>2020-02-22T08:39:46Z</time>
      </trkpt>
      <trkpt lat="42.97484" lon="0.24406">
        <ele>922.04</ele>
        <time>2020-02-22T08:39:56Z</time>
      </trkpt>
      <trkpt lat="42.97483" lon="0.24417">
        <ele>923.48</ele>
        <time>2020-02-22T08:40:06Z</time>
      </trkpt>
      <trkpt lat="42.9748" lon="0.24428">
        <ele>924.93</ele>
        <time>2020-02-22T08:40:17Z</time>
      </trkpt>
      <trkpt lat="42.97479" lon="0.24443">
        <ele>925.89</ele>
        <time>2020-02-22T08:40:28Z</time>
      </trkpt>
      <trkpt lat="42.97479" lon="0.24455">
        <ele>926.85</ele>
        <time>2020-02-22T08:40:39Z</time>
      </trkpt>
      <trkpt lat="42.97468" lon="0.24453">
        <ele>927.33</ele>
        <time>2020-02-22T08:40:56Z</time>
      </trkpt>
      <trkpt lat="42.9745" lon="0.24443">
        <ele>933.58</ele>
        <time>2020-02-22T08:41:34Z</time>
      </trkpt>
      <trkpt lat="42.97438" lon="0.2443">
        <ele>939.35</ele>
        <time>2020-02-22T08:42:18Z</time>
      </trkpt>
      <trkpt lat="42.97422" lon="0.24429">
        <ele>945.11</ele>
        <time>2020-02-22T08:43:00Z</time>
      </trkpt>
      <trkpt lat="42.97401" lon="0.24436">
        <ele>951.36</ele>
        <time>2020-02-22T08:43:51Z</time>
      </trkpt>
      <trkpt lat="42.97386" lon="0.24432">
        <ele>954.73</ele>
        <time>2020-02-22T08:44:18Z</time>
      </trkpt>
      <trkpt lat="42.97371" lon="0.24437">
        <ele>958.57</ele>
        <time>2020-02-22T08:44:45Z</time>
      </trkpt>
      <trkpt lat="42.97362" lon="0.24452">
        <ele>962.9</ele>
        <time>2020-02-22T08:45:29Z</time>
      </trkpt>
      <trkpt lat="42.9735" lon="0.24466">
        <ele>967.22</ele>
        <time>2020-02-22T08:46:00Z</time>
      </trkpt>
      <trkpt lat="42.97343" lon="0.24485">
        <ele>971.07</ele>
        <time>2020-02-22T08:46:28Z</time>
      </trkpt>
      <trkpt lat="42.97336" lon="0.24495">
        <ele>974.43</ele>
        <time>2020-02-22T08:46:55Z</time>
      </trkpt>
      <trkpt lat="42.97334" lon="0.24512">
        <ele>977.8</ele>
        <time>2020-02-22T08:47:21Z</time>
      </trkpt>
      <trkpt lat="42.97335" lon="0.24537">
        <ele>981.16</ele>
        <time>2020-02-22T08:47:50Z</time>
      </trkpt>
      <trkpt lat="42.97328" lon="0.24562">
        <ele>985.97</ele>
        <time>2020-02-22T08:48:30Z</time>
      </trkpt>
      <trkpt lat="42.97323" lon="0.24587">
        <ele>991.26</ele>
        <time>2020-02-22T08:49:10Z</time>
      </trkpt>
      <trkpt lat="42.9732" lon="0.24608">
        <ele>995.58</ele>
        <time>2020-02-22T08:49:40Z</time>
      </trkpt>
      <trkpt lat="42.97315" lon="0.24627">
        <ele>998.47</ele>
        <time>2020-02-22T08:50:07Z</time>
      </trkpt>
      <trkpt lat="42.97309" lon="0.24649">
        <ele>1002.31</ele>
        <time>2020-02-22T08:50:37Z</time>
      </trkpt>
      <trkpt lat="42.97303" lon="0.24672">
        <ele>1007.12</ele>
        <time>2020-02-22T08:51:12Z</time>
      </trkpt>
      <trkpt lat="42.97301" lon="0.24694">
        <ele>1010.96</ele>
        <time>2020-02-22T08:51:44Z</time>
      </trkpt>
      <trkpt lat="42.97294" lon="0.24717">
        <ele>1014.33</ele>
        <time>2020-02-22T08:52:15Z</time>
      </trkpt>
      <trkpt lat="42.97287" lon="0.2474">
        <ele>1019.13</ele>
        <time>2020-02-22T08:52:51Z</time>
      </trkpt>
      <trkpt lat="42.9728" lon="0.24758">
        <ele>1024.42</ele>
        <time>2020-02-22T08:53:31Z</time>
      </trkpt>
      <trkpt lat="42.97273" lon="0.24783">
        <ele>1029.23</ele>
        <time>2020-02-22T08:54:08Z</time>
      </trkpt>
      <trkpt lat="42.9727" lon="0.24806">
        <ele>1032.11</ele>
        <time>2020-02-22T08:54:38Z</time>
      </trkpt>
      <trkpt lat="42.97263" lon="0.24827">
        <ele>1035.48</ele>
        <time>2020-02-22T08:55:08Z</time>
      </trkpt>
      <trkpt lat="42.97258" lon="0.24847">
        <ele>1039.8</ele>
        <time>2020-02-22T08:55:36Z</time>
      </trkpt>
      <trkpt lat="42.97255" lon="0.24871">
        <ele>1043.65</ele>
        <time>2020-02-22T08:56:05Z</time>
      </trkpt>
      <trkpt lat="42.97251" lon="0.24891">
        <ele>1046.53</ele>
        <time>2020-02-22T08:56:34Z</time>
      </trkpt>
      <trkpt lat="42.97242" lon="0.24914">
        <ele>1051.82</ele>
        <time>2020-02-22T08:57:08Z</time>
      </trkpt>
      <trkpt lat="42.9724" lon="0.2495">
        <ele>1058.07</ele>
        <time>2020-02-22T08:57:56Z</time>
      </trkpt>
      <trkpt lat="42.97231" lon="0.24965">
        <ele>1061.43</ele>
        <time>2020-02-22T08:58:24Z</time>
      </trkpt>
      <trkpt lat="42.97226" lon="0.24989">
        <ele>1065.76</ele>
        <time>2020-02-22T08:58:59Z</time>
      </trkpt>
      <trkpt lat="42.97215" lon="0.25011">
        <ele>1071.05</ele>
        <time>2020-02-22T08:59:38Z</time>
      </trkpt>
      <trkpt lat="42.97206" lon="0.25024">
        <ele>1074.41</ele>
        <time>2020-02-22T09:00:03Z</time>
      </trkpt>
      <trkpt lat="42.97187" lon="0.25041">
        <ele>1079.7</ele>
        <time>2020-02-22T09:00:40Z</time>
      </trkpt>
      <trkpt lat="42.9717" lon="0.25052">
        <ele>1084.02</ele>
        <time>2020-02-22T09:01:14Z</time>
      </trkpt>
      <trkpt lat="42.97159" lon="0.25059">
        <ele>1087.87</ele>
        <time>2020-02-22T09:01:41Z</time>
      </trkpt>
      <trkpt lat="42.97156" lon="0.25075">
        <ele>1091.71</ele>
        <time>2020-02-22T09:02:09Z</time>
      </trkpt>
      <trkpt lat="42.97148" lon="0.2509">
        <ele>1096.04</ele>
        <time>2020-02-22T09:02:40Z</time>
      </trkpt>
      <trkpt lat="42.9714" lon="0.25103">
        <ele>1099.4</ele>
        <time>2020-02-22T09:03:07Z</time>
      </trkpt>
      <trkpt lat="42.97136" lon="0.2512">
        <ele>1103.73</ele>
        <time>2020-02-22T09:03:35Z</time>
      </trkpt>
      <trkpt lat="42.97128" lon="0.25137">
        <ele>1107.58</ele>
        <time>2020-02-22T09:04:06Z</time>
      </trkpt>
      <trkpt lat="42.97124" lon="0.25144">
        <ele>1108.54</ele>
        <time>2020-02-22T09:05:22Z</time>
      </trkpt>
      <trkpt lat="42.97123" lon="0.25154">
        <ele>1109.5</ele>
        <time>2020-02-22T09:07:20Z</time>
      </trkpt>
      <trkpt lat="42.97116" lon="0.25171">
        <ele>1109.98</ele>
        <time>2020-02-22T09:07:37Z</time>
      </trkpt>
      <trkpt lat="42.97106" lon="0.2519">
        <ele>1112.38</ele>
        <time>2020-02-22T09:07:56Z</time>
      </trkpt>
      <trkpt lat="42.97101" lon="0.25206">
        <ele>1115.75</ele>
        <time>2020-02-22T09:08:22Z</time>
      </trkpt>
      <trkpt lat="42.971" lon="0.25227">
        <ele>1118.15</ele>
        <time>2020-02-22T09:08:46Z</time>
      </trkpt>
      <trkpt lat="42.971" lon="0.25249">
        <ele>1122.48</ele>
        <time>2020-02-22T09:09:17Z</time>
      </trkpt>
      <trkpt lat="42.97097" lon="0.25264">
        <ele>1125.36</ele>
        <time>2020-02-22T09:10:49Z</time>
      </trkpt>
      <trkpt lat="42.97097" lon="0.25293">
        <ele>1125.84</ele>
        <time>2020-02-22T09:11:21Z</time>
      </trkpt>
      <trkpt lat="42.97102" lon="0.25315">
        <ele>1125.36</ele>
        <time>2020-02-22T09:11:44Z</time>
      </trkpt>
      <trkpt lat="42.97096" lon="0.25339">
        <ele>1125.36</ele>
        <time>2020-02-22T09:12:02Z</time>
      </trkpt>
      <trkpt lat="42.97088" lon="0.25365">
        <ele>1126.8</ele>
        <time>2020-02-22T09:12:27Z</time>
      </trkpt>
      <trkpt lat="42.97085" lon="0.25383">
        <ele>1127.76</ele>
        <time>2020-02-22T09:13:00Z</time>
      </trkpt>
      <trkpt lat="42.97085" lon="0.254">
        <ele>1130.65</ele>
        <time>2020-02-22T09:13:36Z</time>
      </trkpt>
      <trkpt lat="42.97087" lon="0.25409">
        <ele>1131.61</ele>
        <time>2020-02-22T09:14:05Z</time>
      </trkpt>
      <trkpt lat="42.97085" lon="0.25417">
        <ele>1130.17</ele>
        <time>2020-02-22T09:14:34Z</time>
      </trkpt>
      <trkpt lat="42.97078" lon="0.25432">
        <ele>1132.57</ele>
        <time>2020-02-22T09:14:59Z</time>
      </trkpt>
      <trkpt lat="42.97077" lon="0.25454">
        <ele>1135.45</ele>
        <time>2020-02-22T09:15:25Z</time>
      </trkpt>
      <trkpt lat="42.97082" lon="0.25478">
        <ele>1138.34</ele>
        <time>2020-02-22T09:15:50Z</time>
      </trkpt>
      <trkpt lat="42.97076" lon="0.25499">
        <ele>1140.26</ele>
        <time>2020-02-22T09:16:13Z</time>
      </trkpt>
      <trkpt lat="42.9707" lon="0.25511">
        <ele>1143.14</ele>
        <time>2020-02-22T09:16:31Z</time>
      </trkpt>
      <trkpt lat="42.97067" lon="0.25524">
        <ele>1144.59</ele>
        <time>2020-02-22T09:16:46Z</time>
      </trkpt>
      <trkpt lat="42.97063" lon="0.25533">
        <ele>1146.99</ele>
        <time>2020-02-22T09:17:08Z</time>
      </trkpt>
      <trkpt lat="42.97063" lon="0.25545">
        <ele>1151.32</ele>
        <time>2020-02-22T09:17:35Z</time>
      </trkpt>
      <trkpt lat="42.9706" lon="0.25559">
        <ele>1154.68</ele>
        <time>2020-02-22T09:18:01Z</time>
      </trkpt>
      <trkpt lat="42.97056" lon="0.25572">
        <ele>1157.56</ele>
        <time>2020-02-22T09:18:25Z</time>
      </trkpt>
      <trkpt lat="42.97052" lon="0.25581">
        <ele>1159.97</ele>
        <time>2020-02-22T09:18:48Z</time>
      </trkpt>
      <trkpt lat="42.97048" lon="0.25591">
        <ele>1162.85</ele>
        <time>2020-02-22T09:19:12Z</time>
      </trkpt>
      <trkpt lat="42.97044" lon="0.25604">
        <ele>1165.74</ele>
        <time>2020-02-22T09:19:32Z</time>
      </trkpt>
      <trkpt lat="42.9704" lon="0.25613">
        <ele>1168.62</ele>
        <time>2020-02-22T09:19:55Z</time>
      </trkpt>
      <trkpt lat="42.97039" lon="0.25626">
        <ele>1171.02</ele>
        <time>2020-02-22T09:20:19Z</time>
      </trkpt>
      <trkpt lat="42.97038" lon="0.25639">
        <ele>1173.43</ele>
        <time>2020-02-22T09:20:39Z</time>
      </trkpt>
      <trkpt lat="42.97032" lon="0.25651">
        <ele>1175.35</ele>
        <time>2020-02-22T09:20:57Z</time>
      </trkpt>
      <trkpt lat="42.97028" lon="0.25663">
        <ele>1177.75</ele>
        <time>2020-02-22T09:21:18Z</time>
      </trkpt>
      <trkpt lat="42.97024" lon="0.25675">
        <ele>1181.12</ele>
        <time>2020-02-22T09:21:38Z</time>
      </trkpt>
      <trkpt lat="42.97021" lon="0.25688">
        <ele>1183.52</ele>
        <time>2020-02-22T09:22:01Z</time>
      </trkpt>
      <trkpt lat="42.97017" lon="0.25701">
        <ele>1185.92</ele>
        <time>2020-02-22T09:22:19Z</time>
      </trkpt>
      <trkpt lat="42.97014" lon="0.25711">
        <ele>1188.33</ele>
        <time>2020-02-22T09:22:38Z</time>
      </trkpt>
      <trkpt lat="42.97011" lon="0.25723">
        <ele>1190.73</ele>
        <time>2020-02-22T09:22:55Z</time>
      </trkpt>
      <trkpt lat="42.97008" lon="0.25734">
        <ele>1193.13</ele>
        <time>2020-02-22T09:23:12Z</time>
      </trkpt>
      <trkpt lat="42.97001" lon="0.25745">
        <ele>1194.58</ele>
        <time>2020-02-22T09:23:30Z</time>
      </trkpt>
      <trkpt lat="42.96998" lon="0.25757">
        <ele>1196.98</ele>
        <time>2020-02-22T09:23:47Z</time>
      </trkpt>
      <trkpt lat="42.96994" lon="0.2577">
        <ele>1199.86</ele>
        <time>2020-02-22T09:24:05Z</time>
      </trkpt>
      <trkpt lat="42.96991" lon="0.25781">
        <ele>1201.79</ele>
        <time>2020-02-22T09:24:22Z</time>
      </trkpt>
      <trkpt lat="42.96987" lon="0.25794">
        <ele>1204.19</ele>
        <time>2020-02-22T09:24:41Z</time>
      </trkpt>
      <trkpt lat="42.96987" lon="0.25806">
        <ele>1206.59</ele>
        <time>2020-02-22T09:24:58Z</time>
      </trkpt>
      <trkpt lat="42.96982" lon="0.25817">
        <ele>1208.51</ele>
        <time>2020-02-22T09:25:14Z</time>
      </trkpt>
      <trkpt lat="42.96982" lon="0.25828">
        <ele>1211.4</ele>
        <time>2020-02-22T09:25:33Z</time>
      </trkpt>
      <trkpt lat="42.96977" lon="0.2584">
        <ele>1214.28</ele>
        <time>2020-02-22T09:25:50Z</time>
      </trkpt>
      <trkpt lat="42.96977" lon="0.25848">
        <ele>1216.21</ele>
        <time>2020-02-22T09:26:06Z</time>
      </trkpt>
      <trkpt lat="42.96972" lon="0.25862">
        <ele>1218.13</ele>
        <time>2020-02-22T09:26:37Z</time>
      </trkpt>
      <trkpt lat="42.96967" lon="0.25875">
        <ele>1221.01</ele>
        <time>2020-02-22T09:26:56Z</time>
      </trkpt>
      <trkpt lat="42.96965" lon="0.25885">
        <ele>1223.42</ele>
        <time>2020-02-22T09:27:11Z</time>
      </trkpt>
      <trkpt lat="42.96962" lon="0.25893">
        <ele>1224.38</ele>
        <time>2020-02-22T09:27:46Z</time>
      </trkpt>
      <trkpt lat="42.96964" lon="0.25906">
        <ele>1227.74</ele>
        <time>2020-02-22T09:28:02Z</time>
      </trkpt>
      <trkpt lat="42.9696" lon="0.2592">
        <ele>1230.14</ele>
        <time>2020-02-22T09:28:17Z</time>
      </trkpt>
      <trkpt lat="42.96958" lon="0.25932">
        <ele>1231.59</ele>
        <time>2020-02-22T09:28:31Z</time>
      </trkpt>
      <trkpt lat="42.96955" lon="0.25945">
        <ele>1234.47</ele>
        <time>2020-02-22T09:28:46Z</time>
      </trkpt>
      <trkpt lat="42.96953" lon="0.25957">
        <ele>1236.87</ele>
        <time>2020-02-22T09:29:01Z</time>
      </trkpt>
      <trkpt lat="42.96952" lon="0.2597">
        <ele>1238.8</ele>
        <time>2020-02-22T09:29:18Z</time>
      </trkpt>
      <trkpt lat="42.96952" lon="0.25983">
        <ele>1240.24</ele>
        <time>2020-02-22T09:29:34Z</time>
      </trkpt>
      <trkpt lat="42.96951" lon="0.25994">
        <ele>1243.12</ele>
        <time>2020-02-22T09:29:50Z</time>
      </trkpt>
      <trkpt lat="42.96951" lon="0.26006">
        <ele>1245.04</ele>
        <time>2020-02-22T09:30:06Z</time>
      </trkpt>
      <trkpt lat="42.96952" lon="0.2602">
        <ele>1247.45</ele>
        <time>2020-02-22T09:30:20Z</time>
      </trkpt>
      <trkpt lat="42.96952" lon="0.26031">
        <ele>1248.89</ele>
        <time>2020-02-22T09:30:35Z</time>
      </trkpt>
      <trkpt lat="42.96953" lon="0.26044">
        <ele>1249.85</ele>
        <time>2020-02-22T09:30:49Z</time>
      </trkpt>
      <trkpt lat="42.96953" lon="0.26057">
        <ele>1251.77</ele>
        <time>2020-02-22T09:31:04Z</time>
      </trkpt>
      <trkpt lat="42.96956" lon="0.26069">
        <ele>1253.7</ele>
        <time>2020-02-22T09:31:18Z</time>
      </trkpt>
      <trkpt lat="42.96958" lon="0.26075">
        <ele>1254.18</ele>
        <time>2020-02-22T09:32:24Z</time>
      </trkpt>
      <trkpt lat="42.96957" lon="0.26089">
        <ele>1256.1</ele>
        <time>2020-02-22T09:32:40Z</time>
      </trkpt>
      <trkpt lat="42.96957" lon="0.261">
        <ele>1257.54</ele>
        <time>2020-02-22T09:32:54Z</time>
      </trkpt>
      <trkpt lat="42.96958" lon="0.26113">
        <ele>1258.5</ele>
        <time>2020-02-22T09:33:08Z</time>
      </trkpt>
      <trkpt lat="42.96959" lon="0.26125">
        <ele>1259.94</ele>
        <time>2020-02-22T09:33:22Z</time>
      </trkpt>
      <trkpt lat="42.96958" lon="0.26135">
        <ele>1261.39</ele>
        <time>2020-02-22T09:33:35Z</time>
      </trkpt>
      <trkpt lat="42.96959" lon="0.26147">
        <ele>1261.87</ele>
        <time>2020-02-22T09:33:48Z</time>
      </trkpt>
      <trkpt lat="42.96955" lon="0.26159">
        <ele>1263.79</ele>
        <time>2020-02-22T09:34:18Z</time>
      </trkpt>
      <trkpt lat="42.96952" lon="0.26173">
        <ele>1264.27</ele>
        <time>2020-02-22T09:34:30Z</time>
      </trkpt>
      <trkpt lat="42.9695" lon="0.26185">
        <ele>1264.27</ele>
        <time>2020-02-22T09:34:41Z</time>
      </trkpt>
      <trkpt lat="42.96948" lon="0.26197">
        <ele>1264.75</ele>
        <time>2020-02-22T09:34:52Z</time>
      </trkpt>
      <trkpt lat="42.96943" lon="0.26209">
        <ele>1264.27</ele>
        <time>2020-02-22T09:35:03Z</time>
      </trkpt>
      <trkpt lat="42.96937" lon="0.2622">
        <ele>1264.27</ele>
        <time>2020-02-22T09:35:14Z</time>
      </trkpt>
      <trkpt lat="42.96935" lon="0.26235">
        <ele>1264.27</ele>
        <time>2020-02-22T09:35:24Z</time>
      </trkpt>
      <trkpt lat="42.96931" lon="0.2625">
        <ele>1265.23</ele>
        <time>2020-02-22T09:35:35Z</time>
      </trkpt>
      <trkpt lat="42.96927" lon="0.26262">
        <ele>1265.23</ele>
        <time>2020-02-22T09:35:46Z</time>
      </trkpt>
      <trkpt lat="42.96923" lon="0.26273">
        <ele>1266.67</ele>
        <time>2020-02-22T09:36:06Z</time>
      </trkpt>
      <trkpt lat="42.96928" lon="0.26284">
        <ele>1268.6</ele>
        <time>2020-02-22T09:36:20Z</time>
      </trkpt>
      <trkpt lat="42.96932" lon="0.26295">
        <ele>1270.04</ele>
        <time>2020-02-22T09:36:32Z</time>
      </trkpt>
      <trkpt lat="42.96936" lon="0.26304">
        <ele>1271.48</ele>
        <time>2020-02-22T09:36:45Z</time>
      </trkpt>
      <trkpt lat="42.96943" lon="0.26314">
        <ele>1273.4</ele>
        <time>2020-02-22T09:36:58Z</time>
      </trkpt>
      <trkpt lat="42.96947" lon="0.26323">
        <ele>1275.33</ele>
        <time>2020-02-22T09:37:13Z</time>
      </trkpt>
      <trkpt lat="42.96952" lon="0.26332">
        <ele>1276.77</ele>
        <time>2020-02-22T09:37:52Z</time>
      </trkpt>
      <trkpt lat="42.96961" lon="0.2634">
        <ele>1279.17</ele>
        <time>2020-02-22T09:38:07Z</time>
      </trkpt>
      <trkpt lat="42.96968" lon="0.26349">
        <ele>1281.09</ele>
        <time>2020-02-22T09:38:20Z</time>
      </trkpt>
      <trkpt lat="42.96975" lon="0.26356">
        <ele>1283.02</ele>
        <time>2020-02-22T09:38:35Z</time>
      </trkpt>
      <trkpt lat="42.96984" lon="0.26358">
        <ele>1285.42</ele>
        <time>2020-02-22T09:38:55Z</time>
      </trkpt>
      <trkpt lat="42.96991" lon="0.26355">
        <ele>1285.9</ele>
        <time>2020-02-22T09:40:09Z</time>
      </trkpt>
      <trkpt lat="42.97001" lon="0.26355">
        <ele>1286.38</ele>
        <time>2020-02-22T09:40:22Z</time>
      </trkpt>
      <trkpt lat="42.97009" lon="0.26357">
        <ele>1287.82</ele>
        <time>2020-02-22T09:40:35Z</time>
      </trkpt>
      <trkpt lat="42.97018" lon="0.26356">
        <ele>1290.23</ele>
        <time>2020-02-22T09:40:50Z</time>
      </trkpt>
      <trkpt lat="42.97028" lon="0.26357">
        <ele>1291.19</ele>
        <time>2020-02-22T09:41:02Z</time>
      </trkpt>
      <trkpt lat="42.97037" lon="0.26361">
        <ele>1292.15</ele>
        <time>2020-02-22T09:41:14Z</time>
      </trkpt>
      <trkpt lat="42.97043" lon="0.26362">
        <ele>1293.59</ele>
        <time>2020-02-22T09:41:48Z</time>
      </trkpt>
      <trkpt lat="42.97055" lon="0.26359">
        <ele>1294.55</ele>
        <time>2020-02-22T09:42:01Z</time>
      </trkpt>
      <trkpt lat="42.97065" lon="0.26359">
        <ele>1295.99</ele>
        <time>2020-02-22T09:42:14Z</time>
      </trkpt>
      <trkpt lat="42.97074" lon="0.26357">
        <ele>1297.44</ele>
        <time>2020-02-22T09:42:27Z</time>
      </trkpt>
      <trkpt lat="42.97083" lon="0.26353">
        <ele>1299.36</ele>
        <time>2020-02-22T09:42:40Z</time>
      </trkpt>
      <trkpt lat="42.97092" lon="0.26348">
        <ele>1301.28</ele>
        <time>2020-02-22T09:42:53Z</time>
      </trkpt>
      <trkpt lat="42.97101" lon="0.26342">
        <ele>1302.24</ele>
        <time>2020-02-22T09:43:05Z</time>
      </trkpt>
      <trkpt lat="42.97109" lon="0.26334">
        <ele>1304.17</ele>
        <time>2020-02-22T09:43:20Z</time>
      </trkpt>
      <trkpt lat="42.97115" lon="0.26327">
        <ele>1306.57</ele>
        <time>2020-02-22T09:43:34Z</time>
      </trkpt>
      <trkpt lat="42.9712" lon="0.26318">
        <ele>1307.05</ele>
        <time>2020-02-22T09:43:52Z</time>
      </trkpt>
      <trkpt lat="42.97127" lon="0.26312">
        <ele>1310.41</ele>
        <time>2020-02-22T09:44:13Z</time>
      </trkpt>
      <trkpt lat="42.97135" lon="0.26305">
        <ele>1312.82</ele>
        <time>2020-02-22T09:44:29Z</time>
      </trkpt>
      <trkpt lat="42.97141" lon="0.26297">
        <ele>1315.22</ele>
        <time>2020-02-22T09:44:57Z</time>
      </trkpt>
      <trkpt lat="42.9715" lon="0.26295">
        <ele>1317.62</ele>
        <time>2020-02-22T09:45:14Z</time>
      </trkpt>
      <trkpt lat="42.97159" lon="0.26295">
        <ele>1320.51</ele>
        <time>2020-02-22T09:45:32Z</time>
      </trkpt>
      <trkpt lat="42.97169" lon="0.26293">
        <ele>1322.91</ele>
        <time>2020-02-22T09:45:48Z</time>
      </trkpt>
      <trkpt lat="42.97178" lon="0.26291">
        <ele>1324.35</ele>
        <time>2020-02-22T09:46:04Z</time>
      </trkpt>
      <trkpt lat="42.97186" lon="0.26289">
        <ele>1326.28</ele>
        <time>2020-02-22T09:46:21Z</time>
      </trkpt>
      <trkpt lat="42.97196" lon="0.26288">
        <ele>1330.6</ele>
        <time>2020-02-22T09:46:44Z</time>
      </trkpt>
      <trkpt lat="42.97207" lon="0.26293">
        <ele>1333.49</ele>
        <time>2020-02-22T09:47:09Z</time>
      </trkpt>
      <trkpt lat="42.97216" lon="0.26293">
        <ele>1335.89</ele>
        <time>2020-02-22T09:47:29Z</time>
      </trkpt>
      <trkpt lat="42.97224" lon="0.26297">
        <ele>1338.29</ele>
        <time>2020-02-22T09:47:48Z</time>
      </trkpt>
      <trkpt lat="42.97234" lon="0.263">
        <ele>1341.18</ele>
        <time>2020-02-22T09:48:06Z</time>
      </trkpt>
      <trkpt lat="42.97241" lon="0.263">
        <ele>1343.58</ele>
        <time>2020-02-22T09:48:23Z</time>
      </trkpt>
      <trkpt lat="42.97252" lon="0.26302">
        <ele>1347.43</ele>
        <time>2020-02-22T09:48:49Z</time>
      </trkpt>
      <trkpt lat="42.9726" lon="0.26304">
        <ele>1349.83</ele>
        <time>2020-02-22T09:49:07Z</time>
      </trkpt>
      <trkpt lat="42.9727" lon="0.26304">
        <ele>1352.71</ele>
        <time>2020-02-22T09:49:26Z</time>
      </trkpt>
      <trkpt lat="42.97278" lon="0.26304">
        <ele>1354.15</ele>
        <time>2020-02-22T09:49:42Z</time>
      </trkpt>
      <trkpt lat="42.97287" lon="0.26301">
        <ele>1356.56</ele>
        <time>2020-02-22T09:50:00Z</time>
      </trkpt>
      <trkpt lat="42.973" lon="0.26303">
        <ele>1358.96</ele>
        <time>2020-02-22T09:50:21Z</time>
      </trkpt>
      <trkpt lat="42.97308" lon="0.26308">
        <ele>1362.33</ele>
        <time>2020-02-22T09:50:39Z</time>
      </trkpt>
      <trkpt lat="42.97317" lon="0.2631">
        <ele>1364.73</ele>
        <time>2020-02-22T09:50:57Z</time>
      </trkpt>
      <trkpt lat="42.97327" lon="0.26306">
        <ele>1366.65</ele>
        <time>2020-02-22T09:51:14Z</time>
      </trkpt>
      <trkpt lat="42.97338" lon="0.26308">
        <ele>1370.5</ele>
        <time>2020-02-22T09:51:35Z</time>
      </trkpt>
      <trkpt lat="42.97349" lon="0.26301">
        <ele>1372.42</ele>
        <time>2020-02-22T09:53:27Z</time>
      </trkpt>
      <trkpt lat="42.9736" lon="0.26311">
        <ele>1375.78</ele>
        <time>2020-02-22T09:53:42Z</time>
      </trkpt>
      <trkpt lat="42.9737" lon="0.26306">
        <ele>1378.19</ele>
        <time>2020-02-22T09:53:59Z</time>
      </trkpt>
      <trkpt lat="42.97379" lon="0.26304">
        <ele>1379.63</ele>
        <time>2020-02-22T09:54:15Z</time>
      </trkpt>
      <trkpt lat="42.97388" lon="0.26307">
        <ele>1381.55</ele>
        <time>2020-02-22T09:54:33Z</time>
      </trkpt>
      <trkpt lat="42.97398" lon="0.26306">
        <ele>1383.47</ele>
        <time>2020-02-22T09:54:49Z</time>
      </trkpt>
      <trkpt lat="42.97407" lon="0.26308">
        <ele>1385.88</ele>
        <time>2020-02-22T09:55:06Z</time>
      </trkpt>
      <trkpt lat="42.97417" lon="0.26306">
        <ele>1387.8</ele>
        <time>2020-02-22T09:55:23Z</time>
      </trkpt>
      <trkpt lat="42.97426" lon="0.2631">
        <ele>1390.2</ele>
        <time>2020-02-22T09:55:43Z</time>
      </trkpt>
      <trkpt lat="42.97436" lon="0.26312">
        <ele>1393.57</ele>
        <time>2020-02-22T09:56:02Z</time>
      </trkpt>
      <trkpt lat="42.97446" lon="0.26315">
        <ele>1396.45</ele>
        <time>2020-02-22T09:56:20Z</time>
      </trkpt>
      <trkpt lat="42.97454" lon="0.2632">
        <ele>1398.86</ele>
        <time>2020-02-22T09:56:41Z</time>
      </trkpt>
      <trkpt lat="42.97464" lon="0.26318">
        <ele>1400.78</ele>
        <time>2020-02-22T09:57:05Z</time>
      </trkpt>
      <trkpt lat="42.97473" lon="0.26321">
        <ele>1403.66</ele>
        <time>2020-02-22T09:57:20Z</time>
      </trkpt>
      <trkpt lat="42.97481" lon="0.26325">
        <ele>1406.55</ele>
        <time>2020-02-22T09:57:39Z</time>
      </trkpt>
      <trkpt lat="42.9749" lon="0.26327">
        <ele>1409.43</ele>
        <time>2020-02-22T09:57:59Z</time>
      </trkpt>
      <trkpt lat="42.97499" lon="0.2633">
        <ele>1411.83</ele>
        <time>2020-02-22T09:58:24Z</time>
      </trkpt>
      <trkpt lat="42.97509" lon="0.26331">
        <ele>1414.24</ele>
        <time>2020-02-22T09:58:42Z</time>
      </trkpt>
      <trkpt lat="42.97518" lon="0.26336">
        <ele>1417.12</ele>
        <time>2020-02-22T09:59:03Z</time>
      </trkpt>
      <trkpt lat="42.97526" lon="0.26341">
        <ele>1420.49</ele>
        <time>2020-02-22T09:59:22Z</time>
      </trkpt>
      <trkpt lat="42.97535" lon="0.26345">
        <ele>1422.89</ele>
        <time>2020-02-22T09:59:47Z</time>
      </trkpt>
      <trkpt lat="42.97543" lon="0.26349">
        <ele>1426.25</ele>
        <time>2020-02-22T10:00:06Z</time>
      </trkpt>
      <trkpt lat="42.97552" lon="0.26352">
        <ele>1428.66</ele>
        <time>2020-02-22T10:00:32Z</time>
      </trkpt>
      <trkpt lat="42.97561" lon="0.26351">
        <ele>1430.1</ele>
        <time>2020-02-22T10:00:50Z</time>
      </trkpt>
      <trkpt lat="42.97569" lon="0.26353">
        <ele>1432.5</ele>
        <time>2020-02-22T10:01:07Z</time>
      </trkpt>
      <trkpt lat="42.97577" lon="0.26355">
        <ele>1434.42</ele>
        <time>2020-02-22T10:01:55Z</time>
      </trkpt>
      <trkpt lat="42.97588" lon="0.26358">
        <ele>1436.35</ele>
        <time>2020-02-22T10:02:12Z</time>
      </trkpt>
      <trkpt lat="42.97596" lon="0.26362">
        <ele>1439.23</ele>
        <time>2020-02-22T10:02:30Z</time>
      </trkpt>
      <trkpt lat="42.97606" lon="0.26365">
        <ele>1441.63</ele>
        <time>2020-02-22T10:02:47Z</time>
      </trkpt>
      <trkpt lat="42.97615" lon="0.2637">
        <ele>1443.08</ele>
        <time>2020-02-22T10:03:05Z</time>
      </trkpt>
      <trkpt lat="42.97623" lon="0.26376">
        <ele>1446.44</ele>
        <time>2020-02-22T10:03:28Z</time>
      </trkpt>
      <trkpt lat="42.97632" lon="0.26383">
        <ele>1449.32</ele>
        <time>2020-02-22T10:03:50Z</time>
      </trkpt>
      <trkpt lat="42.97641" lon="0.26385">
        <ele>1451.25</ele>
        <time>2020-02-22T10:04:17Z</time>
      </trkpt>
      <trkpt lat="42.97648" lon="0.26392">
        <ele>1454.61</ele>
        <time>2020-02-22T10:04:37Z</time>
      </trkpt>
      <trkpt lat="42.97654" lon="0.26403">
        <ele>1457.98</ele>
        <time>2020-02-22T10:05:02Z</time>
      </trkpt>
      <trkpt lat="42.97661" lon="0.26407">
        <ele>1459.9</ele>
        <time>2020-02-22T10:05:41Z</time>
      </trkpt>
      <trkpt lat="42.9767" lon="0.26414">
        <ele>1462.78</ele>
        <time>2020-02-22T10:05:59Z</time>
      </trkpt>
      <trkpt lat="42.97677" lon="0.26418">
        <ele>1464.23</ele>
        <time>2020-02-22T10:06:31Z</time>
      </trkpt>
      <trkpt lat="42.97681" lon="0.26428">
        <ele>1468.07</ele>
        <time>2020-02-22T10:11:00Z</time>
      </trkpt>
      <trkpt lat="42.97691" lon="0.26432">
        <ele>1469.99</ele>
        <time>2020-02-22T10:11:26Z</time>
      </trkpt>
      <trkpt lat="42.97701" lon="0.26438">
        <ele>1470.95</ele>
        <time>2020-02-22T10:11:39Z</time>
      </trkpt>
      <trkpt lat="42.97709" lon="0.26445">
        <ele>1473.84</ele>
        <time>2020-02-22T10:12:39Z</time>
      </trkpt>
      <trkpt lat="42.97718" lon="0.26449">
        <ele>1477.2</ele>
        <time>2020-02-22T10:13:31Z</time>
      </trkpt>
      <trkpt lat="42.97728" lon="0.2645">
        <ele>1478.16</ele>
        <time>2020-02-22T10:13:49Z</time>
      </trkpt>
      <trkpt lat="42.97732" lon="0.26453">
        <ele>1479.61</ele>
        <time>2020-02-22T10:16:01Z</time>
      </trkpt>
      <trkpt lat="42.97741" lon="0.26453">
        <ele>1480.57</ele>
        <time>2020-02-22T10:16:26Z</time>
      </trkpt>
      <trkpt lat="42.97751" lon="0.26457">
        <ele>1482.97</ele>
        <time>2020-02-22T10:16:41Z</time>
      </trkpt>
      <trkpt lat="42.9776" lon="0.26455">
        <ele>1482.01</ele>
        <time>2020-02-22T10:16:53Z</time>
      </trkpt>
      <trkpt lat="42.9777" lon="0.26454">
        <ele>1482.49</ele>
        <time>2020-02-22T10:17:05Z</time>
      </trkpt>
      <trkpt lat="42.97779" lon="0.26455">
        <ele>1482.01</ele>
        <time>2020-02-22T10:17:16Z</time>
      </trkpt>
      <trkpt lat="42.97788" lon="0.2645">
        <ele>1482.97</ele>
        <time>2020-02-22T10:17:28Z</time>
      </trkpt>
      <trkpt lat="42.97795" lon="0.26441">
        <ele>1484.89</ele>
        <time>2020-02-22T10:17:42Z</time>
      </trkpt>
      <trkpt lat="42.978" lon="0.26429">
        <ele>1485.37</ele>
        <time>2020-02-22T10:17:52Z</time>
      </trkpt>
      <trkpt lat="42.97803" lon="0.26417">
        <ele>1485.85</ele>
        <time>2020-02-22T10:18:03Z</time>
      </trkpt>
      <trkpt lat="42.97808" lon="0.26409">
        <ele>1486.82</ele>
        <time>2020-02-22T10:18:15Z</time>
      </trkpt>
      <trkpt lat="42.97813" lon="0.26401">
        <ele>1487.78</ele>
        <time>2020-02-22T10:18:27Z</time>
      </trkpt>
      <trkpt lat="42.97816" lon="0.26389">
        <ele>1488.26</ele>
        <time>2020-02-22T10:18:43Z</time>
      </trkpt>
      <trkpt lat="42.97821" lon="0.26375">
        <ele>1489.22</ele>
        <time>2020-02-22T10:18:56Z</time>
      </trkpt>
      <trkpt lat="42.97824" lon="0.26362">
        <ele>1488.74</ele>
        <time>2020-02-22T10:19:06Z</time>
      </trkpt>
      <trkpt lat="42.9783" lon="0.26349">
        <ele>1489.22</ele>
        <time>2020-02-22T10:19:16Z</time>
      </trkpt>
      <trkpt lat="42.97838" lon="0.2634">
        <ele>1490.18</ele>
        <time>2020-02-22T10:19:37Z</time>
      </trkpt>
      <trkpt lat="42.97841" lon="0.26322">
        <ele>1489.22</ele>
        <time>2020-02-22T10:19:49Z</time>
      </trkpt>
      <trkpt lat="42.97846" lon="0.26312">
        <ele>1489.22</ele>
        <time>2020-02-22T10:20:00Z</time>
      </trkpt>
      <trkpt lat="42.97851" lon="0.26302">
        <ele>1489.22</ele>
        <time>2020-02-22T10:20:30Z</time>
      </trkpt>
      <trkpt lat="42.97852" lon="0.26288">
        <ele>1490.66</ele>
        <time>2020-02-22T10:20:44Z</time>
      </trkpt>
      <trkpt lat="42.97853" lon="0.26273">
        <ele>1489.7</ele>
        <time>2020-02-22T10:20:55Z</time>
      </trkpt>
      <trkpt lat="42.97856" lon="0.26261">
        <ele>1487.3</ele>
        <time>2020-02-22T10:21:08Z</time>
      </trkpt>
      <trkpt lat="42.97865" lon="0.2625">
        <ele>1486.82</ele>
        <time>2020-02-22T10:21:30Z</time>
      </trkpt>
      <trkpt lat="42.97867" lon="0.26237">
        <ele>1487.78</ele>
        <time>2020-02-22T10:21:44Z</time>
      </trkpt>
      <trkpt lat="42.9787" lon="0.26226">
        <ele>1487.3</ele>
        <time>2020-02-22T10:21:58Z</time>
      </trkpt>
      <trkpt lat="42.97877" lon="0.26217">
        <ele>1489.7</ele>
        <time>2020-02-22T10:22:11Z</time>
      </trkpt>
      <trkpt lat="42.97884" lon="0.26208">
        <ele>1491.14</ele>
        <time>2020-02-22T10:22:28Z</time>
      </trkpt>
      <trkpt lat="42.9789" lon="0.262">
        <ele>1494.03</ele>
        <time>2020-02-22T10:22:44Z</time>
      </trkpt>
      <trkpt lat="42.97887" lon="0.26187">
        <ele>1494.99</ele>
        <time>2020-02-22T10:22:58Z</time>
      </trkpt>
      <trkpt lat="42.97891" lon="0.26175">
        <ele>1494.51</ele>
        <time>2020-02-22T10:23:12Z</time>
      </trkpt>
      <trkpt lat="42.97895" lon="0.26163">
        <ele>1494.99</ele>
        <time>2020-02-22T10:23:24Z</time>
      </trkpt>
      <trkpt lat="42.97898" lon="0.26149">
        <ele>1496.91</ele>
        <time>2020-02-22T10:23:37Z</time>
      </trkpt>
      <trkpt lat="42.979" lon="0.26135">
        <ele>1498.35</ele>
        <time>2020-02-22T10:23:50Z</time>
      </trkpt>
      <trkpt lat="42.97903" lon="0.26126">
        <ele>1499.79</ele>
        <time>2020-02-22T10:24:14Z</time>
      </trkpt>
      <trkpt lat="42.97908" lon="0.26116">
        <ele>1500.27</ele>
        <time>2020-02-22T10:24:28Z</time>
      </trkpt>
      <trkpt lat="42.97912" lon="0.26105">
        <ele>1501.24</ele>
        <time>2020-02-22T10:24:38Z</time>
      </trkpt>
      <trkpt lat="42.97917" lon="0.26093">
        <ele>1501.24</ele>
        <time>2020-02-22T10:24:49Z</time>
      </trkpt>
      <trkpt lat="42.97925" lon="0.26085">
        <ele>1504.12</ele>
        <time>2020-02-22T10:25:05Z</time>
      </trkpt>
      <trkpt lat="42.97932" lon="0.26078">
        <ele>1505.56</ele>
        <time>2020-02-22T10:25:21Z</time>
      </trkpt>
      <trkpt lat="42.97936" lon="0.26068">
        <ele>1506.04</ele>
        <time>2020-02-22T10:25:44Z</time>
      </trkpt>
      <trkpt lat="42.97943" lon="0.26057">
        <ele>1507</ele>
        <time>2020-02-22T10:26:02Z</time>
      </trkpt>
      <trkpt lat="42.97949" lon="0.26043">
        <ele>1507.97</ele>
        <time>2020-02-22T10:26:19Z</time>
      </trkpt>
      <trkpt lat="42.97959" lon="0.26035">
        <ele>1508.93</ele>
        <time>2020-02-22T10:26:35Z</time>
      </trkpt>
      <trkpt lat="42.9797" lon="0.26025">
        <ele>1511.33</ele>
        <time>2020-02-22T10:26:55Z</time>
      </trkpt>
      <trkpt lat="42.97982" lon="0.26016">
        <ele>1514.21</ele>
        <time>2020-02-22T10:27:16Z</time>
      </trkpt>
      <trkpt lat="42.97988" lon="0.26005">
        <ele>1511.81</ele>
        <time>2020-02-22T10:27:30Z</time>
      </trkpt>
      <trkpt lat="42.97995" lon="0.25994">
        <ele>1513.73</ele>
        <time>2020-02-22T10:27:45Z</time>
      </trkpt>
      <trkpt lat="42.98004" lon="0.25987">
        <ele>1513.73</ele>
        <time>2020-02-22T10:27:57Z</time>
      </trkpt>
      <trkpt lat="42.98012" lon="0.25979">
        <ele>1512.29</ele>
        <time>2020-02-22T10:28:39Z</time>
      </trkpt>
      <trkpt lat="42.9802" lon="0.25972">
        <ele>1510.85</ele>
        <time>2020-02-22T10:29:01Z</time>
      </trkpt>
      <trkpt lat="42.98029" lon="0.25965">
        <ele>1510.37</ele>
        <time>2020-02-22T10:29:15Z</time>
      </trkpt>
      <trkpt lat="42.98041" lon="0.25955">
        <ele>1510.85</ele>
        <time>2020-02-22T10:29:29Z</time>
      </trkpt>
      <trkpt lat="42.98052" lon="0.25945">
        <ele>1510.85</ele>
        <time>2020-02-22T10:29:45Z</time>
      </trkpt>
      <trkpt lat="42.98063" lon="0.25936">
        <ele>1511.33</ele>
        <time>2020-02-22T10:29:57Z</time>
      </trkpt>
      <trkpt lat="42.98074" lon="0.25927">
        <ele>1510.37</ele>
        <time>2020-02-22T10:30:16Z</time>
      </trkpt>
      <trkpt lat="42.98092" lon="0.25909">
        <ele>1509.89</ele>
        <time>2020-02-22T10:30:37Z</time>
      </trkpt>
      <trkpt lat="42.98104" lon="0.25898">
        <ele>1508.45</ele>
        <time>2020-02-22T10:30:52Z</time>
      </trkpt>
      <trkpt lat="42.98121" lon="0.25881">
        <ele>1509.89</ele>
        <time>2020-02-22T10:31:18Z</time>
      </trkpt>
      <trkpt lat="42.98135" lon="0.25868">
        <ele>1514.21</ele>
        <time>2020-02-22T10:31:44Z</time>
      </trkpt>
      <trkpt lat="42.98144" lon="0.25858">
        <ele>1515.18</ele>
        <time>2020-02-22T10:31:59Z</time>
      </trkpt>
      <trkpt lat="42.98151" lon="0.25846">
        <ele>1513.25</ele>
        <time>2020-02-22T10:32:16Z</time>
      </trkpt>
      <trkpt lat="42.98157" lon="0.25837">
        <ele>1512.77</ele>
        <time>2020-02-22T10:32:28Z</time>
      </trkpt>
      <trkpt lat="42.98162" lon="0.25818">
        <ele>1514.21</ele>
        <time>2020-02-22T10:32:44Z</time>
      </trkpt>
      <trkpt lat="42.98163" lon="0.25804">
        <ele>1515.66</ele>
        <time>2020-02-22T10:32:59Z</time>
      </trkpt>
      <trkpt lat="42.98164" lon="0.25789">
        <ele>1519.5</ele>
        <time>2020-02-22T10:33:20Z</time>
      </trkpt>
      <trkpt lat="42.98165" lon="0.25774">
        <ele>1520.94</ele>
        <time>2020-02-22T10:33:35Z</time>
      </trkpt>
      <trkpt lat="42.98171" lon="0.25758">
        <ele>1523.83</ele>
        <time>2020-02-22T10:33:55Z</time>
      </trkpt>
      <trkpt lat="42.98179" lon="0.25745">
        <ele>1527.19</ele>
        <time>2020-02-22T10:34:23Z</time>
      </trkpt>
      <trkpt lat="42.98181" lon="0.25736">
        <ele>1528.63</ele>
        <time>2020-02-22T10:34:49Z</time>
      </trkpt>
      <trkpt lat="42.98187" lon="0.25722">
        <ele>1532</ele>
        <time>2020-02-22T10:35:22Z</time>
      </trkpt>
      <trkpt lat="42.98194" lon="0.25716">
        <ele>1535.36</ele>
        <time>2020-02-22T10:45:37Z</time>
      </trkpt>
      <trkpt lat="42.98202" lon="0.257">
        <ele>1538.73</ele>
        <time>2020-02-22T10:46:06Z</time>
      </trkpt>
      <trkpt lat="42.98208" lon="0.25681">
        <ele>1539.21</ele>
        <time>2020-02-22T10:46:26Z</time>
      </trkpt>
      <trkpt lat="42.98213" lon="0.25672">
        <ele>1541.13</ele>
        <time>2020-02-22T10:46:42Z</time>
      </trkpt>
      <trkpt lat="42.98211" lon="0.25657">
        <ele>1542.57</ele>
        <time>2020-02-22T10:47:02Z</time>
      </trkpt>
      <trkpt lat="42.98214" lon="0.25644">
        <ele>1542.09</ele>
        <time>2020-02-22T10:47:17Z</time>
      </trkpt>
      <trkpt lat="42.9822" lon="0.25633">
        <ele>1541.13</ele>
        <time>2020-02-22T10:47:30Z</time>
      </trkpt>
      <trkpt lat="42.98227" lon="0.25621">
        <ele>1540.17</ele>
        <time>2020-02-22T10:47:44Z</time>
      </trkpt>
      <trkpt lat="42.98233" lon="0.25605">
        <ele>1539.21</ele>
        <time>2020-02-22T10:47:58Z</time>
      </trkpt>
      <trkpt lat="42.98243" lon="0.25589">
        <ele>1540.17</ele>
        <time>2020-02-22T10:48:13Z</time>
      </trkpt>
      <trkpt lat="42.98251" lon="0.25576">
        <ele>1541.13</ele>
        <time>2020-02-22T10:48:28Z</time>
      </trkpt>
      <trkpt lat="42.9826" lon="0.25565">
        <ele>1540.17</ele>
        <time>2020-02-22T10:48:46Z</time>
      </trkpt>
      <trkpt lat="42.98268" lon="0.25552">
        <ele>1543.05</ele>
        <time>2020-02-22T10:49:08Z</time>
      </trkpt>
      <trkpt lat="42.98274" lon="0.2554">
        <ele>1540.65</ele>
        <time>2020-02-22T10:49:25Z</time>
      </trkpt>
      <trkpt lat="42.9828" lon="0.25527">
        <ele>1540.65</ele>
        <time>2020-02-22T10:49:33Z</time>
      </trkpt>
      <trkpt lat="42.98287" lon="0.25517">
        <ele>1541.61</ele>
        <time>2020-02-22T10:49:43Z</time>
      </trkpt>
      <trkpt lat="42.98292" lon="0.25503">
        <ele>1541.13</ele>
        <time>2020-02-22T10:49:54Z</time>
      </trkpt>
      <trkpt lat="42.98294" lon="0.25487">
        <ele>1538.73</ele>
        <time>2020-02-22T10:50:06Z</time>
      </trkpt>
      <trkpt lat="42.98299" lon="0.25473">
        <ele>1536.8</ele>
        <time>2020-02-22T10:50:41Z</time>
      </trkpt>
      <trkpt lat="42.98305" lon="0.25463">
        <ele>1537.77</ele>
        <time>2020-02-22T10:50:52Z</time>
      </trkpt>
      <trkpt lat="42.98311" lon="0.25452">
        <ele>1537.29</ele>
        <time>2020-02-22T10:51:02Z</time>
      </trkpt>
      <trkpt lat="42.98321" lon="0.25444">
        <ele>1539.21</ele>
        <time>2020-02-22T10:51:16Z</time>
      </trkpt>
      <trkpt lat="42.98348" lon="0.25434">
        <ele>1543.53</ele>
        <time>2020-02-22T10:52:01Z</time>
      </trkpt>
      <trkpt lat="42.98363" lon="0.25437">
        <ele>1547.38</ele>
        <time>2020-02-22T10:52:28Z</time>
      </trkpt>
      <trkpt lat="42.98375" lon="0.2544">
        <ele>1549.78</ele>
        <time>2020-02-22T10:53:15Z</time>
      </trkpt>
      <trkpt lat="42.98374" lon="0.25453">
        <ele>1552.67</ele>
        <time>2020-02-22T10:53:33Z</time>
      </trkpt>
      <trkpt lat="42.98368" lon="0.25465">
        <ele>1556.03</ele>
        <time>2020-02-22T10:53:57Z</time>
      </trkpt>
      <trkpt lat="42.98368" lon="0.25478">
        <ele>1558.92</ele>
        <time>2020-02-22T10:55:03Z</time>
      </trkpt>
      <trkpt lat="42.98364" lon="0.2549">
        <ele>1562.76</ele>
        <time>2020-02-22T10:55:23Z</time>
      </trkpt>
      <trkpt lat="42.98359" lon="0.25497">
        <ele>1564.68</ele>
        <time>2020-02-22T10:55:40Z</time>
      </trkpt>
      <trkpt lat="42.98359" lon="0.25508">
        <ele>1567.09</ele>
        <time>2020-02-22T10:55:58Z</time>
      </trkpt>
      <trkpt lat="42.98366" lon="0.25521">
        <ele>1570.45</ele>
        <time>2020-02-22T10:56:24Z</time>
      </trkpt>
      <trkpt lat="42.98367" lon="0.2553">
        <ele>1572.37</ele>
        <time>2020-02-22T10:57:02Z</time>
      </trkpt>
      <trkpt lat="42.9837" lon="0.2554">
        <ele>1576.22</ele>
        <time>2020-02-22T10:57:25Z</time>
      </trkpt>
      <trkpt lat="42.98369" lon="0.25552">
        <ele>1578.62</ele>
        <time>2020-02-22T10:57:49Z</time>
      </trkpt>
      <trkpt lat="42.98365" lon="0.25565">
        <ele>1581.03</ele>
        <time>2020-02-22T10:58:11Z</time>
      </trkpt>
      <trkpt lat="42.98368" lon="0.2558">
        <ele>1585.83</ele>
        <time>2020-02-22T10:58:41Z</time>
      </trkpt>
      <trkpt lat="42.98362" lon="0.25589">
        <ele>1587.75</ele>
        <time>2020-02-22T10:59:05Z</time>
      </trkpt>
      <trkpt lat="42.98367" lon="0.25597">
        <ele>1590.64</ele>
        <time>2020-02-22T10:59:41Z</time>
      </trkpt>
      <trkpt lat="42.98367" lon="0.25603">
        <ele>1593.04</ele>
        <time>2020-02-22T10:59:57Z</time>
      </trkpt>
      <trkpt lat="42.98369" lon="0.25616">
        <ele>1595.93</ele>
        <time>2020-02-22T11:00:27Z</time>
      </trkpt>
      <trkpt lat="42.98373" lon="0.25627">
        <ele>1598.33</ele>
        <time>2020-02-22T11:00:46Z</time>
      </trkpt>
      <trkpt lat="42.98374" lon="0.25639">
        <ele>1601.21</ele>
        <time>2020-02-22T11:01:07Z</time>
      </trkpt>
      <trkpt lat="42.98375" lon="0.25648">
        <ele>1602.66</ele>
        <time>2020-02-22T11:01:22Z</time>
      </trkpt>
      <trkpt lat="42.98378" lon="0.25657">
        <ele>1605.06</ele>
        <time>2020-02-22T11:01:40Z</time>
      </trkpt>
      <trkpt lat="42.98372" lon="0.25669">
        <ele>1607.46</ele>
        <time>2020-02-22T11:02:02Z</time>
      </trkpt>
      <trkpt lat="42.9837" lon="0.25681">
        <ele>1609.86</ele>
        <time>2020-02-22T11:02:24Z</time>
      </trkpt>
      <trkpt lat="42.98371" lon="0.25693">
        <ele>1612.27</ele>
        <time>2020-02-22T11:02:42Z</time>
      </trkpt>
      <trkpt lat="42.98368" lon="0.25703">
        <ele>1614.67</ele>
        <time>2020-02-22T11:02:59Z</time>
      </trkpt>
      <trkpt lat="42.98369" lon="0.25716">
        <ele>1617.07</ele>
        <time>2020-02-22T11:03:18Z</time>
      </trkpt>
      <trkpt lat="42.98371" lon="0.25729">
        <ele>1621.4</ele>
        <time>2020-02-22T11:03:48Z</time>
      </trkpt>
      <trkpt lat="42.9837" lon="0.25742">
        <ele>1623.8</ele>
        <time>2020-02-22T11:04:11Z</time>
      </trkpt>
      <trkpt lat="42.98369" lon="0.25753">
        <ele>1626.21</ele>
        <time>2020-02-22T11:04:33Z</time>
      </trkpt>
      <trkpt lat="42.9838" lon="0.25758">
        <ele>1630.05</ele>
        <time>2020-02-22T11:05:01Z</time>
      </trkpt>
      <trkpt lat="42.98386" lon="0.25769">
        <ele>1632.46</ele>
        <time>2020-02-22T11:05:19Z</time>
      </trkpt>
      <trkpt lat="42.98394" lon="0.25776">
        <ele>1634.38</ele>
        <time>2020-02-22T11:05:39Z</time>
      </trkpt>
      <trkpt lat="42.98397" lon="0.25787">
        <ele>1637.26</ele>
        <time>2020-02-22T11:06:02Z</time>
      </trkpt>
      <trkpt lat="42.98396" lon="0.25799">
        <ele>1639.19</ele>
        <time>2020-02-22T11:06:17Z</time>
      </trkpt>
      <trkpt lat="42.98394" lon="0.25808">
        <ele>1641.59</ele>
        <time>2020-02-22T11:06:31Z</time>
      </trkpt>
      <trkpt lat="42.98391" lon="0.25817">
        <ele>1643.99</ele>
        <time>2020-02-22T11:06:49Z</time>
      </trkpt>
      <trkpt lat="42.9839" lon="0.25828">
        <ele>1646.88</ele>
        <time>2020-02-22T11:07:12Z</time>
      </trkpt>
      <trkpt lat="42.98388" lon="0.25841">
        <ele>1649.28</ele>
        <time>2020-02-22T11:07:33Z</time>
      </trkpt>
      <trkpt lat="42.98387" lon="0.25851">
        <ele>1651.68</ele>
        <time>2020-02-22T11:07:50Z</time>
      </trkpt>
      <trkpt lat="42.98382" lon="0.25862">
        <ele>1655.05</ele>
        <time>2020-02-22T11:08:16Z</time>
      </trkpt>
      <trkpt lat="42.98374" lon="0.2587">
        <ele>1658.41</ele>
        <time>2020-02-22T11:08:40Z</time>
      </trkpt>
      <trkpt lat="42.9837" lon="0.2588">
        <ele>1660.81</ele>
        <time>2020-02-22T11:08:57Z</time>
      </trkpt>
      <trkpt lat="42.98362" lon="0.2589">
        <ele>1663.22</ele>
        <time>2020-02-22T11:09:15Z</time>
      </trkpt>
      <trkpt lat="42.98355" lon="0.259">
        <ele>1665.14</ele>
        <time>2020-02-22T11:09:29Z</time>
      </trkpt>
      <trkpt lat="42.9835" lon="0.25909">
        <ele>1666.58</ele>
        <time>2020-02-22T11:09:43Z</time>
      </trkpt>
      <trkpt lat="42.98348" lon="0.2592">
        <ele>1668.02</ele>
        <time>2020-02-22T11:10:00Z</time>
      </trkpt>
      <trkpt lat="42.98346" lon="0.25932">
        <ele>1670.43</ele>
        <time>2020-02-22T11:10:17Z</time>
      </trkpt>
      <trkpt lat="42.98346" lon="0.25945">
        <ele>1672.35</ele>
        <time>2020-02-22T11:10:45Z</time>
      </trkpt>
      <trkpt lat="42.9835" lon="0.25957">
        <ele>1674.75</ele>
        <time>2020-02-22T11:11:05Z</time>
      </trkpt>
      <trkpt lat="42.98345" lon="0.25968">
        <ele>1675.23</ele>
        <time>2020-02-22T11:11:26Z</time>
      </trkpt>
      <trkpt lat="42.98343" lon="0.2598">
        <ele>1677.16</ele>
        <time>2020-02-22T11:11:39Z</time>
      </trkpt>
      <trkpt lat="42.98341" lon="0.25994">
        <ele>1678.6</ele>
        <time>2020-02-22T11:11:53Z</time>
      </trkpt>
      <trkpt lat="42.98335" lon="0.26005">
        <ele>1679.56</ele>
        <time>2020-02-22T11:12:07Z</time>
      </trkpt>
      <trkpt lat="42.98331" lon="0.26015">
        <ele>1681.48</ele>
        <time>2020-02-22T11:12:22Z</time>
      </trkpt>
      <trkpt lat="42.9833" lon="0.2603">
        <ele>1682.93</ele>
        <time>2020-02-22T11:12:39Z</time>
      </trkpt>
      <trkpt lat="42.98328" lon="0.26042">
        <ele>1684.37</ele>
        <time>2020-02-22T11:12:54Z</time>
      </trkpt>
      <trkpt lat="42.98323" lon="0.26054">
        <ele>1685.81</ele>
        <time>2020-02-22T11:13:08Z</time>
      </trkpt>
      <trkpt lat="42.98317" lon="0.26064">
        <ele>1685.81</ele>
        <time>2020-02-22T11:13:22Z</time>
      </trkpt>
      <trkpt lat="42.98313" lon="0.26074">
        <ele>1687.25</ele>
        <time>2020-02-22T11:13:35Z</time>
      </trkpt>
      <trkpt lat="42.98307" lon="0.26085">
        <ele>1688.69</ele>
        <time>2020-02-22T11:13:48Z</time>
      </trkpt>
      <trkpt lat="42.98303" lon="0.26094">
        <ele>1690.14</ele>
        <time>2020-02-22T11:14:01Z</time>
      </trkpt>
      <trkpt lat="42.98295" lon="0.26102">
        <ele>1693.02</ele>
        <time>2020-02-22T11:14:16Z</time>
      </trkpt>
      <trkpt lat="42.98288" lon="0.26107">
        <ele>1694.94</ele>
        <time>2020-02-22T11:14:31Z</time>
      </trkpt>
      <trkpt lat="42.98281" lon="0.26111">
        <ele>1697.34</ele>
        <time>2020-02-22T11:14:51Z</time>
      </trkpt>
      <trkpt lat="42.98275" lon="0.26117">
        <ele>1699.75</ele>
        <time>2020-02-22T11:15:08Z</time>
      </trkpt>
      <trkpt lat="42.98267" lon="0.26124">
        <ele>1702.15</ele>
        <time>2020-02-22T11:15:28Z</time>
      </trkpt>
      <trkpt lat="42.98262" lon="0.26129">
        <ele>1704.07</ele>
        <time>2020-02-22T11:15:45Z</time>
      </trkpt>
      <trkpt lat="42.98252" lon="0.26131">
        <ele>1706</ele>
        <time>2020-02-22T11:16:01Z</time>
      </trkpt>
      <trkpt lat="42.98243" lon="0.26134">
        <ele>1707.44</ele>
        <time>2020-02-22T11:16:17Z</time>
      </trkpt>
      <trkpt lat="42.98236" lon="0.26138">
        <ele>1709.36</ele>
        <time>2020-02-22T11:16:31Z</time>
      </trkpt>
      <trkpt lat="42.98234" lon="0.26149">
        <ele>1711.76</ele>
        <time>2020-02-22T11:16:49Z</time>
      </trkpt>
      <trkpt lat="42.98228" lon="0.26156">
        <ele>1714.17</ele>
        <time>2020-02-22T11:17:37Z</time>
      </trkpt>
      <trkpt lat="42.98227" lon="0.26167">
        <ele>1716.57</ele>
        <time>2020-02-22T11:17:55Z</time>
      </trkpt>
      <trkpt lat="42.98222" lon="0.26179">
        <ele>1717.53</ele>
        <time>2020-02-22T11:18:12Z</time>
      </trkpt>
      <trkpt lat="42.98218" lon="0.2619">
        <ele>1718.97</ele>
        <time>2020-02-22T11:18:28Z</time>
      </trkpt>
      <trkpt lat="42.98214" lon="0.262">
        <ele>1720.42</ele>
        <time>2020-02-22T11:18:43Z</time>
      </trkpt>
      <trkpt lat="42.98208" lon="0.2621">
        <ele>1721.86</ele>
        <time>2020-02-22T11:18:56Z</time>
      </trkpt>
      <trkpt lat="42.98204" lon="0.2622">
        <ele>1723.78</ele>
        <time>2020-02-22T11:19:11Z</time>
      </trkpt>
      <trkpt lat="42.9821" lon="0.26231">
        <ele>1724.74</ele>
        <time>2020-02-22T11:20:10Z</time>
      </trkpt>
      <trkpt lat="42.98201" lon="0.26236">
        <ele>1726.67</ele>
        <time>2020-02-22T11:20:23Z</time>
      </trkpt>
      <trkpt lat="42.98195" lon="0.26243">
        <ele>1728.59</ele>
        <time>2020-02-22T11:20:37Z</time>
      </trkpt>
      <trkpt lat="42.98188" lon="0.2625">
        <ele>1730.51</ele>
        <time>2020-02-22T11:20:52Z</time>
      </trkpt>
      <trkpt lat="42.98183" lon="0.2626">
        <ele>1732.43</ele>
        <time>2020-02-22T11:21:08Z</time>
      </trkpt>
      <trkpt lat="42.98177" lon="0.2627">
        <ele>1734.36</ele>
        <time>2020-02-22T11:21:22Z</time>
      </trkpt>
      <trkpt lat="42.98174" lon="0.26281">
        <ele>1734.36</ele>
        <time>2020-02-22T11:21:48Z</time>
      </trkpt>
      <trkpt lat="42.98175" lon="0.26293">
        <ele>1734.84</ele>
        <time>2020-02-22T11:22:01Z</time>
      </trkpt>
      <trkpt lat="42.98174" lon="0.26305">
        <ele>1735.32</ele>
        <time>2020-02-22T11:22:12Z</time>
      </trkpt>
      <trkpt lat="42.98171" lon="0.26318">
        <ele>1735.8</ele>
        <time>2020-02-22T11:22:24Z</time>
      </trkpt>
      <trkpt lat="42.98172" lon="0.26329">
        <ele>1736.76</ele>
        <time>2020-02-22T11:22:41Z</time>
      </trkpt>
      <trkpt lat="42.98177" lon="0.26341">
        <ele>1736.76</ele>
        <time>2020-02-22T11:22:54Z</time>
      </trkpt>
      <trkpt lat="42.98182" lon="0.26351">
        <ele>1738.68</ele>
        <time>2020-02-22T11:23:10Z</time>
      </trkpt>
      <trkpt lat="42.98186" lon="0.26363">
        <ele>1739.64</ele>
        <time>2020-02-22T11:23:23Z</time>
      </trkpt>
      <trkpt lat="42.98185" lon="0.26376">
        <ele>1741.08</ele>
        <time>2020-02-22T11:23:37Z</time>
      </trkpt>
      <trkpt lat="42.98186" lon="0.26387">
        <ele>1743.49</ele>
        <time>2020-02-22T11:24:12Z</time>
      </trkpt>
      <trkpt lat="42.98184" lon="0.26399">
        <ele>1745.89</ele>
        <time>2020-02-22T11:24:29Z</time>
      </trkpt>
      <trkpt lat="42.98189" lon="0.26409">
        <ele>1746.37</ele>
        <time>2020-02-22T11:24:41Z</time>
      </trkpt>
      <trkpt lat="42.98196" lon="0.26417">
        <ele>1747.81</ele>
        <time>2020-02-22T11:24:54Z</time>
      </trkpt>
      <trkpt lat="42.98192" lon="0.26429">
        <ele>1751.18</ele>
        <time>2020-02-22T11:25:13Z</time>
      </trkpt>
      <trkpt lat="42.98189" lon="0.26439">
        <ele>1754.06</ele>
        <time>2020-02-22T11:25:32Z</time>
      </trkpt>
      <trkpt lat="42.98193" lon="0.2645">
        <ele>1755.5</ele>
        <time>2020-02-22T11:25:50Z</time>
      </trkpt>
      <trkpt lat="42.98186" lon="0.26456">
        <ele>1756.95</ele>
        <time>2020-02-22T11:26:09Z</time>
      </trkpt>
      <trkpt lat="42.98181" lon="0.26467">
        <ele>1759.35</ele>
        <time>2020-02-22T11:26:28Z</time>
      </trkpt>
      <trkpt lat="42.98185" lon="0.26478">
        <ele>1762.71</ele>
        <time>2020-02-22T11:26:53Z</time>
      </trkpt>
      <trkpt lat="42.98187" lon="0.2649">
        <ele>1764.64</ele>
        <time>2020-02-22T11:27:15Z</time>
      </trkpt>
      <trkpt lat="42.98187" lon="0.26507">
        <ele>1767.04</ele>
        <time>2020-02-22T11:27:49Z</time>
      </trkpt>
      <trkpt lat="42.98189" lon="0.26521">
        <ele>1768.48</ele>
        <time>2020-02-22T11:28:08Z</time>
      </trkpt>
      <trkpt lat="42.98194" lon="0.2653">
        <ele>1767.52</ele>
        <time>2020-02-22T11:28:51Z</time>
      </trkpt>
      <trkpt lat="42.98192" lon="0.2654">
        <ele>1768.48</ele>
        <time>2020-02-22T11:29:50Z</time>
      </trkpt>
      <trkpt lat="42.9819" lon="0.26558">
        <ele>1770.89</ele>
        <time>2020-02-22T11:30:44Z</time>
      </trkpt>
      <trkpt lat="42.98193" lon="0.26566">
        <ele>1773.29</ele>
        <time>2020-02-22T11:32:33Z</time>
      </trkpt>
      <trkpt lat="42.98186" lon="0.26583">
        <ele>1777.13</ele>
        <time>2020-02-22T11:33:28Z</time>
      </trkpt>
      <trkpt lat="42.98191" lon="0.26596">
        <ele>1777.61</ele>
        <time>2020-02-22T11:34:18Z</time>
      </trkpt>
      <trkpt lat="42.98188" lon="0.26611">
        <ele>1779.06</ele>
        <time>2020-02-22T11:34:47Z</time>
      </trkpt>
      <trkpt lat="42.98191" lon="0.26626">
        <ele>1780.98</ele>
        <time>2020-02-22T11:35:44Z</time>
      </trkpt>
      <trkpt lat="42.9819" lon="0.26631">
        <ele>1783.38</ele>
        <time>2020-02-22T11:37:11Z</time>
      </trkpt>
      <trkpt lat="42.98192" lon="0.26636">
        <ele>1783.38</ele>
        <time>2020-02-22T11:38:11Z</time>
      </trkpt>
      <trkpt lat="42.98197" lon="0.26645">
        <ele>1781.46</ele>
        <time>2020-02-22T11:39:16Z</time>
      </trkpt>
      <trkpt lat="42.98188" lon="0.26659">
        <ele>1784.82</ele>
        <time>2020-02-22T11:40:18Z</time>
      </trkpt>
      <trkpt lat="42.98184" lon="0.26679">
        <ele>1788.19</ele>
        <time>2020-02-22T11:41:05Z</time>
      </trkpt>
      <trkpt lat="42.98183" lon="0.26695">
        <ele>1791.55</ele>
        <time>2020-02-22T11:41:30Z</time>
      </trkpt>
      <trkpt lat="42.98177" lon="0.26708">
        <ele>1795.4</ele>
        <time>2020-02-22T11:42:12Z</time>
      </trkpt>
      <trkpt lat="42.98176" lon="0.26709">
        <ele>1796.84</ele>
        <time>2020-02-22T11:44:39Z</time>
      </trkpt>
      <trkpt lat="42.98184" lon="0.26718">
        <ele>1793.96</ele>
        <time>2020-02-22T11:45:48Z</time>
      </trkpt>
      <trkpt lat="42.98184" lon="0.2673">
        <ele>1793</ele>
        <time>2020-02-22T11:47:07Z</time>
      </trkpt>
      <trkpt lat="42.98185" lon="0.26748">
        <ele>1792.03</ele>
        <time>2020-02-22T11:48:37Z</time>
      </trkpt>
      <trkpt lat="42.98178" lon="0.26747">
        <ele>1792.52</ele>
        <time>2020-02-22T11:50:00Z</time>
      </trkpt>
      <trkpt lat="42.98176" lon="0.26756">
        <ele>1789.63</ele>
        <time>2020-02-22T11:50:41Z</time>
      </trkpt>
      <trkpt lat="42.98171" lon="0.26766">
        <ele>1787.23</ele>
        <time>2020-02-22T11:51:00Z</time>
      </trkpt>
      <trkpt lat="42.98169" lon="0.26778">
        <ele>1784.34</ele>
        <time>2020-02-22T11:51:17Z</time>
      </trkpt>
      <trkpt lat="42.98165" lon="0.2679">
        <ele>1782.9</ele>
        <time>2020-02-22T11:51:39Z</time>
      </trkpt>
      <trkpt lat="42.9816" lon="0.26801">
        <ele>1781.94</ele>
        <time>2020-02-22T11:51:50Z</time>
      </trkpt>
      <trkpt lat="42.98157" lon="0.26813">
        <ele>1781.46</ele>
        <time>2020-02-22T11:52:01Z</time>
      </trkpt>
      <trkpt lat="42.98154" lon="0.26825">
        <ele>1781.46</ele>
        <time>2020-02-22T11:52:12Z</time>
      </trkpt>
      <trkpt lat="42.9815" lon="0.26837">
        <ele>1780.02</ele>
        <time>2020-02-22T11:52:23Z</time>
      </trkpt>
      <trkpt lat="42.9815" lon="0.26848">
        <ele>1779.54</ele>
        <time>2020-02-22T11:52:38Z</time>
      </trkpt>
      <trkpt lat="42.98147" lon="0.26859">
        <ele>1779.54</ele>
        <time>2020-02-22T11:52:51Z</time>
      </trkpt>
      <trkpt lat="42.98146" lon="0.26872">
        <ele>1779.54</ele>
        <time>2020-02-22T11:53:06Z</time>
      </trkpt>
      <trkpt lat="42.98142" lon="0.26883">
        <ele>1779.06</ele>
        <time>2020-02-22T11:53:21Z</time>
      </trkpt>
      <trkpt lat="42.98139" lon="0.26893">
        <ele>1778.58</ele>
        <time>2020-02-22T11:53:41Z</time>
      </trkpt>
      <trkpt lat="42.98135" lon="0.26905">
        <ele>1778.58</ele>
        <time>2020-02-22T11:53:52Z</time>
      </trkpt>
      <trkpt lat="42.98131" lon="0.26917">
        <ele>1778.58</ele>
        <time>2020-02-22T11:54:02Z</time>
      </trkpt>
      <trkpt lat="42.98127" lon="0.26929">
        <ele>1777.13</ele>
        <time>2020-02-22T11:54:11Z</time>
      </trkpt>
      <trkpt lat="42.98124" lon="0.26942">
        <ele>1778.58</ele>
        <time>2020-02-22T11:54:22Z</time>
      </trkpt>
      <trkpt lat="42.98121" lon="0.26953">
        <ele>1780.5</ele>
        <time>2020-02-22T11:54:34Z</time>
      </trkpt>
      <trkpt lat="42.98118" lon="0.26965">
        <ele>1781.94</ele>
        <time>2020-02-22T11:54:58Z</time>
      </trkpt>
      <trkpt lat="42.98114" lon="0.26978">
        <ele>1782.9</ele>
        <time>2020-02-22T11:55:11Z</time>
      </trkpt>
      <trkpt lat="42.98113" lon="0.26991">
        <ele>1785.31</ele>
        <time>2020-02-22T11:55:26Z</time>
      </trkpt>
      <trkpt lat="42.98113" lon="0.27002">
        <ele>1787.23</ele>
        <time>2020-02-22T11:55:40Z</time>
      </trkpt>
      <trkpt lat="42.98109" lon="0.27015">
        <ele>1789.63</ele>
        <time>2020-02-22T11:55:55Z</time>
      </trkpt>
      <trkpt lat="42.98109" lon="0.27028">
        <ele>1791.55</ele>
        <time>2020-02-22T11:56:09Z</time>
      </trkpt>
      <trkpt lat="42.98106" lon="0.27039">
        <ele>1793.48</ele>
        <time>2020-02-22T11:56:22Z</time>
      </trkpt>
      <trkpt lat="42.98106" lon="0.27052">
        <ele>1795.4</ele>
        <time>2020-02-22T11:56:37Z</time>
      </trkpt>
      <trkpt lat="42.98108" lon="0.27065">
        <ele>1797.8</ele>
        <time>2020-02-22T11:56:53Z</time>
      </trkpt>
      <trkpt lat="42.98111" lon="0.27076">
        <ele>1798.28</ele>
        <time>2020-02-22T11:57:07Z</time>
      </trkpt>
      <trkpt lat="42.98111" lon="0.27087">
        <ele>1797.32</ele>
        <time>2020-02-22T11:57:19Z</time>
      </trkpt>
      <trkpt lat="42.98112" lon="0.27099">
        <ele>1797.32</ele>
        <time>2020-02-22T11:57:32Z</time>
      </trkpt>
      <trkpt lat="42.98112" lon="0.27111">
        <ele>1796.84</ele>
        <time>2020-02-22T11:57:42Z</time>
      </trkpt>
      <trkpt lat="42.98114" lon="0.27125">
        <ele>1796.84</ele>
        <time>2020-02-22T11:57:53Z</time>
      </trkpt>
      <trkpt lat="42.98115" lon="0.27137">
        <ele>1795.88</ele>
        <time>2020-02-22T11:58:06Z</time>
      </trkpt>
      <trkpt lat="42.98115" lon="0.27149">
        <ele>1797.32</ele>
        <time>2020-02-22T11:58:21Z</time>
      </trkpt>
      <trkpt lat="42.98116" lon="0.27161">
        <ele>1799.24</ele>
        <time>2020-02-22T11:58:35Z</time>
      </trkpt>
      <trkpt lat="42.98117" lon="0.27171">
        <ele>1800.69</ele>
        <time>2020-02-22T11:58:47Z</time>
      </trkpt>
      <trkpt lat="42.98126" lon="0.27175">
        <ele>1799.73</ele>
        <time>2020-02-22T11:59:12Z</time>
      </trkpt>
      <trkpt lat="42.98122" lon="0.27174">
        <ele>1799.73</ele>
        <time>2020-02-22T12:00:10Z</time>
      </trkpt>
      <trkpt lat="42.98116" lon="0.27169">
        <ele>1801.17</ele>
        <time>2020-02-22T12:00:26Z</time>
      </trkpt>
      <trkpt lat="42.98115" lon="0.27173">
        <ele>1805.97</ele>
        <time>2020-02-22T12:52:01Z</time>
      </trkpt>
      <trkpt lat="42.98115" lon="0.27166">
        <ele>1806.94</ele>
        <time>2020-02-22T12:54:09Z</time>
      </trkpt>
      <trkpt lat="42.98113" lon="0.27154">
        <ele>1805.97</ele>
        <time>2020-02-22T12:54:54Z</time>
      </trkpt>
      <trkpt lat="42.98112" lon="0.27142">
        <ele>1804.05</ele>
        <time>2020-02-22T12:55:08Z</time>
      </trkpt>
      <trkpt lat="42.9811" lon="0.27129">
        <ele>1802.61</ele>
        <time>2020-02-22T12:55:21Z</time>
      </trkpt>
      <trkpt lat="42.98109" lon="0.27117">
        <ele>1802.61</ele>
        <time>2020-02-22T12:55:34Z</time>
      </trkpt>
      <trkpt lat="42.98106" lon="0.27104">
        <ele>1802.61</ele>
        <time>2020-02-22T12:55:45Z</time>
      </trkpt>
      <trkpt lat="42.98106" lon="0.27092">
        <ele>1803.57</ele>
        <time>2020-02-22T12:55:56Z</time>
      </trkpt>
      <trkpt lat="42.98107" lon="0.2708">
        <ele>1804.53</ele>
        <time>2020-02-22T12:56:08Z</time>
      </trkpt>
      <trkpt lat="42.98105" lon="0.27081">
        <ele>1805.01</ele>
        <time>2020-02-22T12:56:22Z</time>
      </trkpt>
      <trkpt lat="42.98103" lon="0.27083">
        <ele>1803.57</ele>
        <time>2020-02-22T12:56:38Z</time>
      </trkpt>
      <trkpt lat="42.98102" lon="0.27085">
        <ele>1800.69</ele>
        <time>2020-02-22T12:56:55Z</time>
      </trkpt>
      <trkpt lat="42.981" lon="0.27087">
        <ele>1799.73</ele>
        <time>2020-02-22T12:57:25Z</time>
      </trkpt>
      <trkpt lat="42.98098" lon="0.2709">
        <ele>1800.69</ele>
        <time>2020-02-22T12:57:36Z</time>
      </trkpt>
      <trkpt lat="42.98097" lon="0.27092">
        <ele>1800.21</ele>
        <time>2020-02-22T12:57:51Z</time>
      </trkpt>
      <trkpt lat="42.98094" lon="0.27092">
        <ele>1798.76</ele>
        <time>2020-02-22T12:58:05Z</time>
      </trkpt>
      <trkpt lat="42.98089" lon="0.27099">
        <ele>1795.4</ele>
        <time>2020-02-22T12:58:20Z</time>
      </trkpt>
      <trkpt lat="42.98086" lon="0.27111">
        <ele>1792.52</ele>
        <time>2020-02-22T12:58:35Z</time>
      </trkpt>
      <trkpt lat="42.98084" lon="0.27123">
        <ele>1790.59</ele>
        <time>2020-02-22T12:58:49Z</time>
      </trkpt>
      <trkpt lat="42.98079" lon="0.27134">
        <ele>1786.75</ele>
        <time>2020-02-22T12:59:05Z</time>
      </trkpt>
      <trkpt lat="42.98077" lon="0.27146">
        <ele>1783.38</ele>
        <time>2020-02-22T12:59:19Z</time>
      </trkpt>
      <trkpt lat="42.98076" lon="0.27158">
        <ele>1781.46</ele>
        <time>2020-02-22T12:59:36Z</time>
      </trkpt>
      <trkpt lat="42.98073" lon="0.27164">
        <ele>1780.5</ele>
        <time>2020-02-22T13:00:07Z</time>
      </trkpt>
      <trkpt lat="42.98066" lon="0.27156">
        <ele>1778.58</ele>
        <time>2020-02-22T13:00:23Z</time>
      </trkpt>
      <trkpt lat="42.98059" lon="0.27148">
        <ele>1773.77</ele>
        <time>2020-02-22T13:00:40Z</time>
      </trkpt>
      <trkpt lat="42.98055" lon="0.27159">
        <ele>1768.96</ele>
        <time>2020-02-22T13:00:59Z</time>
      </trkpt>
      <trkpt lat="42.98051" lon="0.2717">
        <ele>1765.12</ele>
        <time>2020-02-22T13:01:19Z</time>
      </trkpt>
      <trkpt lat="42.98047" lon="0.27184">
        <ele>1761.75</ele>
        <time>2020-02-22T13:01:37Z</time>
      </trkpt>
      <trkpt lat="42.98045" lon="0.27197">
        <ele>1758.87</ele>
        <time>2020-02-22T13:01:50Z</time>
      </trkpt>
      <trkpt lat="42.98042" lon="0.27209">
        <ele>1755.5</ele>
        <time>2020-02-22T13:02:06Z</time>
      </trkpt>
      <trkpt lat="42.98038" lon="0.27224">
        <ele>1752.14</ele>
        <time>2020-02-22T13:02:21Z</time>
      </trkpt>
      <trkpt lat="42.98035" lon="0.27235">
        <ele>1749.74</ele>
        <time>2020-02-22T13:02:35Z</time>
      </trkpt>
      <trkpt lat="42.98034" lon="0.27248">
        <ele>1747.33</ele>
        <time>2020-02-22T13:02:47Z</time>
      </trkpt>
      <trkpt lat="42.98035" lon="0.27261">
        <ele>1745.41</ele>
        <time>2020-02-22T13:02:59Z</time>
      </trkpt>
      <trkpt lat="42.98027" lon="0.27258">
        <ele>1742.53</ele>
        <time>2020-02-22T13:03:20Z</time>
      </trkpt>
      <trkpt lat="42.98023" lon="0.27249">
        <ele>1742.05</ele>
        <time>2020-02-22T13:03:45Z</time>
      </trkpt>
      <trkpt lat="42.98019" lon="0.27237">
        <ele>1740.6</ele>
        <time>2020-02-22T13:04:05Z</time>
      </trkpt>
      <trkpt lat="42.98017" lon="0.27225">
        <ele>1741.08</ele>
        <time>2020-02-22T13:04:14Z</time>
      </trkpt>
      <trkpt lat="42.98014" lon="0.27213">
        <ele>1740.12</ele>
        <time>2020-02-22T13:04:24Z</time>
      </trkpt>
      <trkpt lat="42.98012" lon="0.27199">
        <ele>1739.16</ele>
        <time>2020-02-22T13:04:33Z</time>
      </trkpt>
      <trkpt lat="42.98011" lon="0.27184">
        <ele>1739.64</ele>
        <time>2020-02-22T13:04:43Z</time>
      </trkpt>
      <trkpt lat="42.9801" lon="0.2717">
        <ele>1739.16</ele>
        <time>2020-02-22T13:04:52Z</time>
      </trkpt>
      <trkpt lat="42.98007" lon="0.27156">
        <ele>1739.64</ele>
        <time>2020-02-22T13:05:02Z</time>
      </trkpt>
      <trkpt lat="42.98004" lon="0.27145">
        <ele>1737.72</ele>
        <time>2020-02-22T13:05:11Z</time>
      </trkpt>
      <trkpt lat="42.98002" lon="0.27133">
        <ele>1737.24</ele>
        <time>2020-02-22T13:05:20Z</time>
      </trkpt>
      <trkpt lat="42.97999" lon="0.2712">
        <ele>1736.76</ele>
        <time>2020-02-22T13:05:29Z</time>
      </trkpt>
      <trkpt lat="42.97998" lon="0.27107">
        <ele>1736.28</ele>
        <time>2020-02-22T13:05:38Z</time>
      </trkpt>
      <trkpt lat="42.97995" lon="0.27095">
        <ele>1735.32</ele>
        <time>2020-02-22T13:05:48Z</time>
      </trkpt>
      <trkpt lat="42.97993" lon="0.27083">
        <ele>1733.88</ele>
        <time>2020-02-22T13:06:00Z</time>
      </trkpt>
      <trkpt lat="42.97989" lon="0.27075">
        <ele>1733.39</ele>
        <time>2020-02-22T13:06:17Z</time>
      </trkpt>
      <trkpt lat="42.97986" lon="0.27064">
        <ele>1733.88</ele>
        <time>2020-02-22T13:06:28Z</time>
      </trkpt>
      <trkpt lat="42.97984" lon="0.27051">
        <ele>1731.95</ele>
        <time>2020-02-22T13:06:38Z</time>
      </trkpt>
      <trkpt lat="42.97982" lon="0.27039">
        <ele>1731.47</ele>
        <time>2020-02-22T13:06:47Z</time>
      </trkpt>
      <trkpt lat="42.97977" lon="0.27028">
        <ele>1730.51</ele>
        <time>2020-02-22T13:06:56Z</time>
      </trkpt>
      <trkpt lat="42.97973" lon="0.27017">
        <ele>1727.63</ele>
        <time>2020-02-22T13:07:05Z</time>
      </trkpt>
      <trkpt lat="42.97971" lon="0.27004">
        <ele>1727.15</ele>
        <time>2020-02-22T13:07:15Z</time>
      </trkpt>
      <trkpt lat="42.97969" lon="0.26992">
        <ele>1726.18</ele>
        <time>2020-02-22T13:07:28Z</time>
      </trkpt>
      <trkpt lat="42.97965" lon="0.26981">
        <ele>1724.26</ele>
        <time>2020-02-22T13:07:44Z</time>
      </trkpt>
      <trkpt lat="42.97959" lon="0.26971">
        <ele>1721.86</ele>
        <time>2020-02-22T13:07:58Z</time>
      </trkpt>
      <trkpt lat="42.97958" lon="0.26958">
        <ele>1719.46</ele>
        <time>2020-02-22T13:08:09Z</time>
      </trkpt>
      <trkpt lat="42.9795" lon="0.26959">
        <ele>1717.05</ele>
        <time>2020-02-22T13:08:22Z</time>
      </trkpt>
      <trkpt lat="42.97947" lon="0.26947">
        <ele>1714.17</ele>
        <time>2020-02-22T13:08:36Z</time>
      </trkpt>
      <trkpt lat="42.9794" lon="0.26937">
        <ele>1711.28</ele>
        <time>2020-02-22T13:08:51Z</time>
      </trkpt>
      <trkpt lat="42.97938" lon="0.26925">
        <ele>1708.4</ele>
        <time>2020-02-22T13:09:04Z</time>
      </trkpt>
      <trkpt lat="42.9794" lon="0.26912">
        <ele>1706</ele>
        <time>2020-02-22T13:09:15Z</time>
      </trkpt>
      <trkpt lat="42.97945" lon="0.269">
        <ele>1704.55</ele>
        <time>2020-02-22T13:09:29Z</time>
      </trkpt>
      <trkpt lat="42.97947" lon="0.26887">
        <ele>1701.19</ele>
        <time>2020-02-22T13:09:46Z</time>
      </trkpt>
      <trkpt lat="42.97951" lon="0.26877">
        <ele>1698.31</ele>
        <time>2020-02-22T13:09:58Z</time>
      </trkpt>
      <trkpt lat="42.97958" lon="0.26867">
        <ele>1696.38</ele>
        <time>2020-02-22T13:10:08Z</time>
      </trkpt>
      <trkpt lat="42.97963" lon="0.26855">
        <ele>1694.46</ele>
        <time>2020-02-22T13:10:19Z</time>
      </trkpt>
      <trkpt lat="42.97968" lon="0.26844">
        <ele>1691.58</ele>
        <time>2020-02-22T13:10:30Z</time>
      </trkpt>
      <trkpt lat="42.97974" lon="0.26835">
        <ele>1688.69</ele>
        <time>2020-02-22T13:10:43Z</time>
      </trkpt>
      <trkpt lat="42.97966" lon="0.26836">
        <ele>1688.69</ele>
        <time>2020-02-22T13:11:04Z</time>
      </trkpt>
      <trkpt lat="42.97957" lon="0.26844">
        <ele>1687.73</ele>
        <time>2020-02-22T13:11:19Z</time>
      </trkpt>
      <trkpt lat="42.9795" lon="0.26847">
        <ele>1685.81</ele>
        <time>2020-02-22T13:11:40Z</time>
      </trkpt>
      <trkpt lat="42.97941" lon="0.26854">
        <ele>1684.85</ele>
        <time>2020-02-22T13:11:50Z</time>
      </trkpt>
      <trkpt lat="42.97932" lon="0.26862">
        <ele>1683.89</ele>
        <time>2020-02-22T13:12:01Z</time>
      </trkpt>
      <trkpt lat="42.97923" lon="0.26871">
        <ele>1681.48</ele>
        <time>2020-02-22T13:12:16Z</time>
      </trkpt>
      <trkpt lat="42.97914" lon="0.26876">
        <ele>1677.16</ele>
        <time>2020-02-22T13:12:35Z</time>
      </trkpt>
      <trkpt lat="42.97901" lon="0.26879">
        <ele>1673.31</ele>
        <time>2020-02-22T13:12:53Z</time>
      </trkpt>
      <trkpt lat="42.97893" lon="0.26879">
        <ele>1670.91</ele>
        <time>2020-02-22T13:13:23Z</time>
      </trkpt>
      <trkpt lat="42.97884" lon="0.26878">
        <ele>1668.02</ele>
        <time>2020-02-22T13:13:37Z</time>
      </trkpt>
      <trkpt lat="42.97872" lon="0.26875">
        <ele>1663.7</ele>
        <time>2020-02-22T13:13:57Z</time>
      </trkpt>
      <trkpt lat="42.97867" lon="0.26862">
        <ele>1660.33</ele>
        <time>2020-02-22T13:14:14Z</time>
      </trkpt>
      <trkpt lat="42.97862" lon="0.26854">
        <ele>1656.97</ele>
        <time>2020-02-22T13:14:28Z</time>
      </trkpt>
      <trkpt lat="42.97852" lon="0.26852">
        <ele>1653.6</ele>
        <time>2020-02-22T13:14:43Z</time>
      </trkpt>
      <trkpt lat="42.97844" lon="0.26847">
        <ele>1650.24</ele>
        <time>2020-02-22T13:14:58Z</time>
      </trkpt>
      <trkpt lat="42.97838" lon="0.26839">
        <ele>1645.91</ele>
        <time>2020-02-22T13:15:15Z</time>
      </trkpt>
      <trkpt lat="42.97833" lon="0.26834">
        <ele>1643.03</ele>
        <time>2020-02-22T13:15:29Z</time>
      </trkpt>
      <trkpt lat="42.97826" lon="0.26828">
        <ele>1639.67</ele>
        <time>2020-02-22T13:15:43Z</time>
      </trkpt>
      <trkpt lat="42.97818" lon="0.26821">
        <ele>1635.34</ele>
        <time>2020-02-22T13:15:59Z</time>
      </trkpt>
      <trkpt lat="42.97808" lon="0.2682">
        <ele>1631.98</ele>
        <time>2020-02-22T13:16:14Z</time>
      </trkpt>
      <trkpt lat="42.97799" lon="0.26819">
        <ele>1629.57</ele>
        <time>2020-02-22T13:16:27Z</time>
      </trkpt>
      <trkpt lat="42.97788" lon="0.26814">
        <ele>1625.73</ele>
        <time>2020-02-22T13:16:41Z</time>
      </trkpt>
      <trkpt lat="42.97782" lon="0.26809">
        <ele>1622.84</ele>
        <time>2020-02-22T13:16:56Z</time>
      </trkpt>
      <trkpt lat="42.97773" lon="0.26809">
        <ele>1620.44</ele>
        <time>2020-02-22T13:17:07Z</time>
      </trkpt>
      <trkpt lat="42.97764" lon="0.26812">
        <ele>1618.52</ele>
        <time>2020-02-22T13:17:18Z</time>
      </trkpt>
      <trkpt lat="42.97755" lon="0.26815">
        <ele>1616.11</ele>
        <time>2020-02-22T13:17:30Z</time>
      </trkpt>
      <trkpt lat="42.97747" lon="0.26811">
        <ele>1612.75</ele>
        <time>2020-02-22T13:17:45Z</time>
      </trkpt>
      <trkpt lat="42.97739" lon="0.26808">
        <ele>1609.38</ele>
        <time>2020-02-22T13:18:00Z</time>
      </trkpt>
      <trkpt lat="42.97732" lon="0.26802">
        <ele>1606.98</ele>
        <time>2020-02-22T13:18:12Z</time>
      </trkpt>
      <trkpt lat="42.97725" lon="0.26793">
        <ele>1604.1</ele>
        <time>2020-02-22T13:18:24Z</time>
      </trkpt>
      <trkpt lat="42.97717" lon="0.26789">
        <ele>1601.69</ele>
        <time>2020-02-22T13:18:36Z</time>
      </trkpt>
      <trkpt lat="42.9771" lon="0.2678">
        <ele>1598.81</ele>
        <time>2020-02-22T13:18:47Z</time>
      </trkpt>
      <trkpt lat="42.97705" lon="0.2677">
        <ele>1596.41</ele>
        <time>2020-02-22T13:19:11Z</time>
      </trkpt>
      <trkpt lat="42.97699" lon="0.26761">
        <ele>1594</ele>
        <time>2020-02-22T13:19:24Z</time>
      </trkpt>
      <trkpt lat="42.97689" lon="0.26757">
        <ele>1591.12</ele>
        <time>2020-02-22T13:19:39Z</time>
      </trkpt>
      <trkpt lat="42.97681" lon="0.26751">
        <ele>1587.27</ele>
        <time>2020-02-22T13:19:52Z</time>
      </trkpt>
      <trkpt lat="42.97672" lon="0.26746">
        <ele>1583.91</ele>
        <time>2020-02-22T13:20:06Z</time>
      </trkpt>
      <trkpt lat="42.97665" lon="0.2674">
        <ele>1580.06</ele>
        <time>2020-02-22T13:20:19Z</time>
      </trkpt>
      <trkpt lat="42.97661" lon="0.26727">
        <ele>1576.7</ele>
        <time>2020-02-22T13:20:44Z</time>
      </trkpt>
      <trkpt lat="42.97659" lon="0.26717">
        <ele>1574.78</ele>
        <time>2020-02-22T13:20:59Z</time>
      </trkpt>
      <trkpt lat="42.97657" lon="0.2671">
        <ele>1572.37</ele>
        <time>2020-02-22T13:21:27Z</time>
      </trkpt>
      <trkpt lat="42.97648" lon="0.26703">
        <ele>1569.49</ele>
        <time>2020-02-22T13:21:50Z</time>
      </trkpt>
      <trkpt lat="42.9764" lon="0.26696">
        <ele>1566.61</ele>
        <time>2020-02-22T13:22:03Z</time>
      </trkpt>
      <trkpt lat="42.97636" lon="0.26684">
        <ele>1562.76</ele>
        <time>2020-02-22T13:22:16Z</time>
      </trkpt>
      <trkpt lat="42.97628" lon="0.26677">
        <ele>1559.4</ele>
        <time>2020-02-22T13:22:27Z</time>
      </trkpt>
      <trkpt lat="42.9762" lon="0.26672">
        <ele>1556.51</ele>
        <time>2020-02-22T13:22:38Z</time>
      </trkpt>
      <trkpt lat="42.97612" lon="0.26668">
        <ele>1554.11</ele>
        <time>2020-02-22T13:22:50Z</time>
      </trkpt>
      <trkpt lat="42.97607" lon="0.26658">
        <ele>1550.74</ele>
        <time>2020-02-22T13:23:02Z</time>
      </trkpt>
      <trkpt lat="42.976" lon="0.26647">
        <ele>1547.38</ele>
        <time>2020-02-22T13:23:17Z</time>
      </trkpt>
      <trkpt lat="42.97596" lon="0.26639">
        <ele>1543.05</ele>
        <time>2020-02-22T13:23:33Z</time>
      </trkpt>
      <trkpt lat="42.9759" lon="0.26631">
        <ele>1540.17</ele>
        <time>2020-02-22T13:23:47Z</time>
      </trkpt>
      <trkpt lat="42.9758" lon="0.2663">
        <ele>1536.8</ele>
        <time>2020-02-22T13:24:02Z</time>
      </trkpt>
      <trkpt lat="42.97574" lon="0.2662">
        <ele>1532.48</ele>
        <time>2020-02-22T13:24:15Z</time>
      </trkpt>
      <trkpt lat="42.97567" lon="0.26616">
        <ele>1529.59</ele>
        <time>2020-02-22T13:24:28Z</time>
      </trkpt>
      <trkpt lat="42.97561" lon="0.26607">
        <ele>1526.23</ele>
        <time>2020-02-22T13:24:43Z</time>
      </trkpt>
      <trkpt lat="42.97553" lon="0.26602">
        <ele>1522.87</ele>
        <time>2020-02-22T13:24:56Z</time>
      </trkpt>
      <trkpt lat="42.97547" lon="0.26592">
        <ele>1518.54</ele>
        <time>2020-02-22T13:25:10Z</time>
      </trkpt>
      <trkpt lat="42.97538" lon="0.26593">
        <ele>1515.66</ele>
        <time>2020-02-22T13:25:22Z</time>
      </trkpt>
      <trkpt lat="42.97529" lon="0.26595">
        <ele>1513.25</ele>
        <time>2020-02-22T13:25:34Z</time>
      </trkpt>
      <trkpt lat="42.97522" lon="0.26591">
        <ele>1508.93</ele>
        <time>2020-02-22T13:25:49Z</time>
      </trkpt>
      <trkpt lat="42.97514" lon="0.26586">
        <ele>1505.08</ele>
        <time>2020-02-22T13:26:04Z</time>
      </trkpt>
      <trkpt lat="42.97507" lon="0.2658">
        <ele>1500.27</ele>
        <time>2020-02-22T13:26:18Z</time>
      </trkpt>
      <trkpt lat="42.975" lon="0.26572">
        <ele>1497.39</ele>
        <time>2020-02-22T13:26:33Z</time>
      </trkpt>
      <trkpt lat="42.97491" lon="0.26576">
        <ele>1494.03</ele>
        <time>2020-02-22T13:26:45Z</time>
      </trkpt>
      <trkpt lat="42.97484" lon="0.26569">
        <ele>1490.18</ele>
        <time>2020-02-22T13:26:57Z</time>
      </trkpt>
      <trkpt lat="42.97475" lon="0.26576">
        <ele>1488.26</ele>
        <time>2020-02-22T13:27:10Z</time>
      </trkpt>
      <trkpt lat="42.97466" lon="0.26577">
        <ele>1485.85</ele>
        <time>2020-02-22T13:27:31Z</time>
      </trkpt>
      <trkpt lat="42.97457" lon="0.26579">
        <ele>1483.45</ele>
        <time>2020-02-22T13:27:45Z</time>
      </trkpt>
      <trkpt lat="42.97449" lon="0.2658">
        <ele>1480.09</ele>
        <time>2020-02-22T13:27:59Z</time>
      </trkpt>
      <trkpt lat="42.97439" lon="0.26582">
        <ele>1477.68</ele>
        <time>2020-02-22T13:28:15Z</time>
      </trkpt>
      <trkpt lat="42.97433" lon="0.26579">
        <ele>1474.32</ele>
        <time>2020-02-22T13:28:28Z</time>
      </trkpt>
      <trkpt lat="42.97428" lon="0.26568">
        <ele>1470.95</ele>
        <time>2020-02-22T13:28:41Z</time>
      </trkpt>
      <trkpt lat="42.97419" lon="0.2657">
        <ele>1467.59</ele>
        <time>2020-02-22T13:28:57Z</time>
      </trkpt>
      <trkpt lat="42.97416" lon="0.26557">
        <ele>1464.23</ele>
        <time>2020-02-22T13:29:12Z</time>
      </trkpt>
      <trkpt lat="42.9741" lon="0.26554">
        <ele>1461.34</ele>
        <time>2020-02-22T13:29:28Z</time>
      </trkpt>
      <trkpt lat="42.97401" lon="0.26549">
        <ele>1457.98</ele>
        <time>2020-02-22T13:29:43Z</time>
      </trkpt>
      <trkpt lat="42.97397" lon="0.26536">
        <ele>1454.13</ele>
        <time>2020-02-22T13:29:58Z</time>
      </trkpt>
      <trkpt lat="42.97396" lon="0.26523">
        <ele>1451.25</ele>
        <time>2020-02-22T13:30:12Z</time>
      </trkpt>
      <trkpt lat="42.97396" lon="0.2651">
        <ele>1448.84</ele>
        <time>2020-02-22T13:30:25Z</time>
      </trkpt>
      <trkpt lat="42.97393" lon="0.26499">
        <ele>1446.44</ele>
        <time>2020-02-22T13:30:39Z</time>
      </trkpt>
      <trkpt lat="42.97388" lon="0.26488">
        <ele>1442.6</ele>
        <time>2020-02-22T13:30:53Z</time>
      </trkpt>
      <trkpt lat="42.97383" lon="0.2648">
        <ele>1437.79</ele>
        <time>2020-02-22T13:31:06Z</time>
      </trkpt>
      <trkpt lat="42.97383" lon="0.26468">
        <ele>1435.39</ele>
        <time>2020-02-22T13:31:21Z</time>
      </trkpt>
      <trkpt lat="42.97376" lon="0.26464">
        <ele>1432.98</ele>
        <time>2020-02-22T13:31:37Z</time>
      </trkpt>
      <trkpt lat="42.97367" lon="0.26463">
        <ele>1428.66</ele>
        <time>2020-02-22T13:31:53Z</time>
      </trkpt>
      <trkpt lat="42.97358" lon="0.26465">
        <ele>1426.73</ele>
        <time>2020-02-22T13:32:06Z</time>
      </trkpt>
      <trkpt lat="42.97349" lon="0.26467">
        <ele>1423.37</ele>
        <time>2020-02-22T13:32:20Z</time>
      </trkpt>
      <trkpt lat="42.9734" lon="0.26469">
        <ele>1420</ele>
        <time>2020-02-22T13:32:33Z</time>
      </trkpt>
      <trkpt lat="42.97332" lon="0.26464">
        <ele>1416.64</ele>
        <time>2020-02-22T13:32:47Z</time>
      </trkpt>
      <trkpt lat="42.97323" lon="0.26463">
        <ele>1413.76</ele>
        <time>2020-02-22T13:33:00Z</time>
      </trkpt>
      <trkpt lat="42.97315" lon="0.26459">
        <ele>1410.39</ele>
        <time>2020-02-22T13:33:25Z</time>
      </trkpt>
      <trkpt lat="42.97306" lon="0.26459">
        <ele>1407.03</ele>
        <time>2020-02-22T13:33:36Z</time>
      </trkpt>
      <trkpt lat="42.97298" lon="0.26455">
        <ele>1405.1</ele>
        <time>2020-02-22T13:33:50Z</time>
      </trkpt>
      <trkpt lat="42.97289" lon="0.26453">
        <ele>1401.26</ele>
        <time>2020-02-22T13:34:07Z</time>
      </trkpt>
      <trkpt lat="42.9728" lon="0.26455">
        <ele>1398.37</ele>
        <time>2020-02-22T13:34:20Z</time>
      </trkpt>
      <trkpt lat="42.97271" lon="0.26454">
        <ele>1395.49</ele>
        <time>2020-02-22T13:34:32Z</time>
      </trkpt>
      <trkpt lat="42.97261" lon="0.26455">
        <ele>1392.13</ele>
        <time>2020-02-22T13:34:44Z</time>
      </trkpt>
      <trkpt lat="42.97251" lon="0.26454">
        <ele>1388.28</ele>
        <time>2020-02-22T13:34:59Z</time>
      </trkpt>
      <trkpt lat="42.97241" lon="0.26453">
        <ele>1385.4</ele>
        <time>2020-02-22T13:35:11Z</time>
      </trkpt>
      <trkpt lat="42.97232" lon="0.26455">
        <ele>1382.99</ele>
        <time>2020-02-22T13:35:23Z</time>
      </trkpt>
      <trkpt lat="42.97224" lon="0.26455">
        <ele>1378.19</ele>
        <time>2020-02-22T13:35:38Z</time>
      </trkpt>
      <trkpt lat="42.97216" lon="0.26454">
        <ele>1375.3</ele>
        <time>2020-02-22T13:35:50Z</time>
      </trkpt>
      <trkpt lat="42.97209" lon="0.26462">
        <ele>1373.38</ele>
        <time>2020-02-22T13:36:00Z</time>
      </trkpt>
      <trkpt lat="42.97201" lon="0.26458">
        <ele>1370.02</ele>
        <time>2020-02-22T13:36:11Z</time>
      </trkpt>
      <trkpt lat="42.97192" lon="0.26463">
        <ele>1367.61</ele>
        <time>2020-02-22T13:36:24Z</time>
      </trkpt>
      <trkpt lat="42.97183" lon="0.26466">
        <ele>1364.73</ele>
        <time>2020-02-22T13:36:41Z</time>
      </trkpt>
      <trkpt lat="42.97176" lon="0.26473">
        <ele>1360.88</ele>
        <time>2020-02-22T13:36:56Z</time>
      </trkpt>
      <trkpt lat="42.97167" lon="0.26481">
        <ele>1358.48</ele>
        <time>2020-02-22T13:37:13Z</time>
      </trkpt>
      <trkpt lat="42.97159" lon="0.26486">
        <ele>1355.6</ele>
        <time>2020-02-22T13:37:28Z</time>
      </trkpt>
      <trkpt lat="42.9715" lon="0.26492">
        <ele>1352.71</ele>
        <time>2020-02-22T13:37:41Z</time>
      </trkpt>
      <trkpt lat="42.97142" lon="0.26499">
        <ele>1349.83</ele>
        <time>2020-02-22T13:37:57Z</time>
      </trkpt>
      <trkpt lat="42.97132" lon="0.26505">
        <ele>1346.94</ele>
        <time>2020-02-22T13:38:10Z</time>
      </trkpt>
      <trkpt lat="42.97124" lon="0.2651">
        <ele>1343.1</ele>
        <time>2020-02-22T13:38:23Z</time>
      </trkpt>
      <trkpt lat="42.97116" lon="0.26516">
        <ele>1340.22</ele>
        <time>2020-02-22T13:38:46Z</time>
      </trkpt>
      <trkpt lat="42.97107" lon="0.26519">
        <ele>1336.85</ele>
        <time>2020-02-22T13:38:57Z</time>
      </trkpt>
      <trkpt lat="42.97097" lon="0.26519">
        <ele>1334.93</ele>
        <time>2020-02-22T13:39:08Z</time>
      </trkpt>
      <trkpt lat="42.97087" lon="0.2652">
        <ele>1331.56</ele>
        <time>2020-02-22T13:39:19Z</time>
      </trkpt>
      <trkpt lat="42.97079" lon="0.26511">
        <ele>1329.64</ele>
        <time>2020-02-22T13:39:30Z</time>
      </trkpt>
      <trkpt lat="42.97073" lon="0.26497">
        <ele>1327.24</ele>
        <time>2020-02-22T13:39:41Z</time>
      </trkpt>
      <trkpt lat="42.97071" lon="0.26484">
        <ele>1324.35</ele>
        <time>2020-02-22T13:39:53Z</time>
      </trkpt>
      <trkpt lat="42.97064" lon="0.26478">
        <ele>1322.43</ele>
        <time>2020-02-22T13:40:03Z</time>
      </trkpt>
      <trkpt lat="42.97056" lon="0.26474">
        <ele>1320.51</ele>
        <time>2020-02-22T13:40:13Z</time>
      </trkpt>
      <trkpt lat="42.97047" lon="0.26467">
        <ele>1318.59</ele>
        <time>2020-02-22T13:40:23Z</time>
      </trkpt>
      <trkpt lat="42.9704" lon="0.26458">
        <ele>1316.18</ele>
        <time>2020-02-22T13:40:33Z</time>
      </trkpt>
      <trkpt lat="42.97035" lon="0.26446">
        <ele>1313.78</ele>
        <time>2020-02-22T13:40:43Z</time>
      </trkpt>
      <trkpt lat="42.9703" lon="0.26436">
        <ele>1312.82</ele>
        <time>2020-02-22T13:40:53Z</time>
      </trkpt>
      <trkpt lat="42.97026" lon="0.26425">
        <ele>1308.49</ele>
        <time>2020-02-22T13:41:07Z</time>
      </trkpt>
      <trkpt lat="42.97024" lon="0.26413">
        <ele>1308.49</ele>
        <time>2020-02-22T13:41:18Z</time>
      </trkpt>
      <trkpt lat="42.97021" lon="0.26402">
        <ele>1307.05</ele>
        <time>2020-02-22T13:41:31Z</time>
      </trkpt>
      <trkpt lat="42.9702" lon="0.2639">
        <ele>1305.13</ele>
        <time>2020-02-22T13:41:42Z</time>
      </trkpt>
      <trkpt lat="42.97017" lon="0.26379">
        <ele>1301.76</ele>
        <time>2020-02-22T13:41:52Z</time>
      </trkpt>
      <trkpt lat="42.97015" lon="0.26368">
        <ele>1299.36</ele>
        <time>2020-02-22T13:42:06Z</time>
      </trkpt>
      <trkpt lat="42.97011" lon="0.26359">
        <ele>1298.4</ele>
        <time>2020-02-22T13:42:14Z</time>
      </trkpt>
      <trkpt lat="42.97002" lon="0.26358">
        <ele>1297.44</ele>
        <time>2020-02-22T13:42:25Z</time>
      </trkpt>
      <trkpt lat="42.96994" lon="0.26354">
        <ele>1294.55</ele>
        <time>2020-02-22T13:42:38Z</time>
      </trkpt>
      <trkpt lat="42.96995" lon="0.26344">
        <ele>1293.59</ele>
        <time>2020-02-22T13:42:49Z</time>
      </trkpt>
      <trkpt lat="42.96987" lon="0.26341">
        <ele>1292.63</ele>
        <time>2020-02-22T13:43:02Z</time>
      </trkpt>
      <trkpt lat="42.96987" lon="0.26329">
        <ele>1291.19</ele>
        <time>2020-02-22T13:43:16Z</time>
      </trkpt>
      <trkpt lat="42.9698" lon="0.2632">
        <ele>1289.75</ele>
        <time>2020-02-22T13:43:33Z</time>
      </trkpt>
      <trkpt lat="42.9698" lon="0.26307">
        <ele>1288.3</ele>
        <time>2020-02-22T13:43:47Z</time>
      </trkpt>
      <trkpt lat="42.96986" lon="0.26297">
        <ele>1287.34</ele>
        <time>2020-02-22T13:43:57Z</time>
      </trkpt>
      <trkpt lat="42.96991" lon="0.26291">
        <ele>1286.38</ele>
        <time>2020-02-22T13:44:05Z</time>
      </trkpt>
      <trkpt lat="42.96996" lon="0.26283">
        <ele>1286.86</ele>
        <time>2020-02-22T13:44:15Z</time>
      </trkpt>
      <trkpt lat="42.97001" lon="0.26273">
        <ele>1285.9</ele>
        <time>2020-02-22T13:44:23Z</time>
      </trkpt>
      <trkpt lat="42.97004" lon="0.26266">
        <ele>1285.42</ele>
        <time>2020-02-22T13:44:43Z</time>
      </trkpt>
      <trkpt lat="42.97005" lon="0.26256">
        <ele>1283.02</ele>
        <time>2020-02-22T13:45:01Z</time>
      </trkpt>
      <trkpt lat="42.97011" lon="0.26247">
        <ele>1282.54</ele>
        <time>2020-02-22T13:45:10Z</time>
      </trkpt>
      <trkpt lat="42.97015" lon="0.26238">
        <ele>1282.54</ele>
        <time>2020-02-22T13:45:20Z</time>
      </trkpt>
      <trkpt lat="42.97016" lon="0.26226">
        <ele>1283.02</ele>
        <time>2020-02-22T13:45:32Z</time>
      </trkpt>
      <trkpt lat="42.97012" lon="0.26214">
        <ele>1284.46</ele>
        <time>2020-02-22T13:45:45Z</time>
      </trkpt>
      <trkpt lat="42.97013" lon="0.26204">
        <ele>1283.98</ele>
        <time>2020-02-22T13:46:21Z</time>
      </trkpt>
      <trkpt lat="42.97017" lon="0.26192">
        <ele>1281.57</ele>
        <time>2020-02-22T13:46:40Z</time>
      </trkpt>
      <trkpt lat="42.97019" lon="0.2618">
        <ele>1281.09</ele>
        <time>2020-02-22T13:46:54Z</time>
      </trkpt>
      <trkpt lat="42.9702" lon="0.26171">
        <ele>1280.13</ele>
        <time>2020-02-22T13:50:22Z</time>
      </trkpt>
      <trkpt lat="42.97021" lon="0.26159">
        <ele>1278.69</ele>
        <time>2020-02-22T13:50:33Z</time>
      </trkpt>
      <trkpt lat="42.9702" lon="0.26146">
        <ele>1276.29</ele>
        <time>2020-02-22T13:50:44Z</time>
      </trkpt>
      <trkpt lat="42.97021" lon="0.26133">
        <ele>1274.85</ele>
        <time>2020-02-22T13:50:55Z</time>
      </trkpt>
      <trkpt lat="42.97022" lon="0.26121">
        <ele>1272.92</ele>
        <time>2020-02-22T13:51:06Z</time>
      </trkpt>
      <trkpt lat="42.97022" lon="0.26109">
        <ele>1270.04</ele>
        <time>2020-02-22T13:51:18Z</time>
      </trkpt>
      <trkpt lat="42.97017" lon="0.26098">
        <ele>1268.6</ele>
        <time>2020-02-22T13:51:29Z</time>
      </trkpt>
      <trkpt lat="42.97014" lon="0.26087">
        <ele>1265.23</ele>
        <time>2020-02-22T13:51:41Z</time>
      </trkpt>
      <trkpt lat="42.97016" lon="0.26075">
        <ele>1263.79</ele>
        <time>2020-02-22T13:51:52Z</time>
      </trkpt>
      <trkpt lat="42.97015" lon="0.26063">
        <ele>1261.39</ele>
        <time>2020-02-22T13:52:04Z</time>
      </trkpt>
      <trkpt lat="42.97009" lon="0.26054">
        <ele>1258.5</ele>
        <time>2020-02-22T13:52:17Z</time>
      </trkpt>
      <trkpt lat="42.97006" lon="0.26042">
        <ele>1256.58</ele>
        <time>2020-02-22T13:52:28Z</time>
      </trkpt>
      <trkpt lat="42.97004" lon="0.26029">
        <ele>1253.22</ele>
        <time>2020-02-22T13:52:40Z</time>
      </trkpt>
      <trkpt lat="42.97009" lon="0.26018">
        <ele>1250.81</ele>
        <time>2020-02-22T13:52:51Z</time>
      </trkpt>
      <trkpt lat="42.97015" lon="0.26007">
        <ele>1248.89</ele>
        <time>2020-02-22T13:53:02Z</time>
      </trkpt>
      <trkpt lat="42.97022" lon="0.25997">
        <ele>1246.49</ele>
        <time>2020-02-22T13:53:12Z</time>
      </trkpt>
      <trkpt lat="42.97027" lon="0.25988">
        <ele>1245.04</ele>
        <time>2020-02-22T13:53:22Z</time>
      </trkpt>
      <trkpt lat="42.97033" lon="0.25978">
        <ele>1243.12</ele>
        <time>2020-02-22T13:53:32Z</time>
      </trkpt>
      <trkpt lat="42.9704" lon="0.25969">
        <ele>1241.2</ele>
        <time>2020-02-22T13:53:45Z</time>
      </trkpt>
      <trkpt lat="42.97045" lon="0.25959">
        <ele>1239.28</ele>
        <time>2020-02-22T13:53:57Z</time>
      </trkpt>
      <trkpt lat="42.97047" lon="0.25948">
        <ele>1236.39</ele>
        <time>2020-02-22T13:54:09Z</time>
      </trkpt>
      <trkpt lat="42.97053" lon="0.25937">
        <ele>1234.47</ele>
        <time>2020-02-22T13:54:19Z</time>
      </trkpt>
      <trkpt lat="42.97059" lon="0.25928">
        <ele>1233.03</ele>
        <time>2020-02-22T13:54:29Z</time>
      </trkpt>
      <trkpt lat="42.97066" lon="0.25917">
        <ele>1232.07</ele>
        <time>2020-02-22T13:54:39Z</time>
      </trkpt>
      <trkpt lat="42.97072" lon="0.25907">
        <ele>1230.14</ele>
        <time>2020-02-22T13:54:48Z</time>
      </trkpt>
      <trkpt lat="42.97079" lon="0.259">
        <ele>1227.74</ele>
        <time>2020-02-22T13:55:12Z</time>
      </trkpt>
      <trkpt lat="42.97084" lon="0.25889">
        <ele>1226.3</ele>
        <time>2020-02-22T13:55:25Z</time>
      </trkpt>
      <trkpt lat="42.97094" lon="0.25885">
        <ele>1225.82</ele>
        <time>2020-02-22T13:55:36Z</time>
      </trkpt>
      <trkpt lat="42.97103" lon="0.2588">
        <ele>1224.38</ele>
        <time>2020-02-22T13:55:47Z</time>
      </trkpt>
      <trkpt lat="42.97104" lon="0.25869">
        <ele>1222.45</ele>
        <time>2020-02-22T13:55:59Z</time>
      </trkpt>
      <trkpt lat="42.97104" lon="0.25857">
        <ele>1219.57</ele>
        <time>2020-02-22T13:56:10Z</time>
      </trkpt>
      <trkpt lat="42.97104" lon="0.25846">
        <ele>1216.69</ele>
        <time>2020-02-22T13:56:20Z</time>
      </trkpt>
      <trkpt lat="42.97106" lon="0.25835">
        <ele>1214.76</ele>
        <time>2020-02-22T13:56:32Z</time>
      </trkpt>
      <trkpt lat="42.97111" lon="0.25821">
        <ele>1213.32</ele>
        <time>2020-02-22T13:56:43Z</time>
      </trkpt>
      <trkpt lat="42.97116" lon="0.25808">
        <ele>1210.44</ele>
        <time>2020-02-22T13:56:56Z</time>
      </trkpt>
      <trkpt lat="42.97115" lon="0.25795">
        <ele>1207.07</ele>
        <time>2020-02-22T13:57:17Z</time>
      </trkpt>
      <trkpt lat="42.97118" lon="0.25783">
        <ele>1202.75</ele>
        <time>2020-02-22T13:57:39Z</time>
      </trkpt>
      <trkpt lat="42.97127" lon="0.25767">
        <ele>1200.34</ele>
        <time>2020-02-22T13:57:53Z</time>
      </trkpt>
      <trkpt lat="42.97133" lon="0.25754">
        <ele>1198.42</ele>
        <time>2020-02-22T13:58:02Z</time>
      </trkpt>
      <trkpt lat="42.97141" lon="0.25748">
        <ele>1198.9</ele>
        <time>2020-02-22T13:58:14Z</time>
      </trkpt>
      <trkpt lat="42.97149" lon="0.2574">
        <ele>1196.98</ele>
        <time>2020-02-22T13:58:25Z</time>
      </trkpt>
      <trkpt lat="42.97157" lon="0.25737">
        <ele>1197.46</ele>
        <time>2020-02-22T13:58:40Z</time>
      </trkpt>
      <trkpt lat="42.97165" lon="0.2573">
        <ele>1196.5</ele>
        <time>2020-02-22T13:58:49Z</time>
      </trkpt>
      <trkpt lat="42.9717" lon="0.25722">
        <ele>1195.06</ele>
        <time>2020-02-22T13:59:08Z</time>
      </trkpt>
      <trkpt lat="42.97174" lon="0.25714">
        <ele>1193.13</ele>
        <time>2020-02-22T13:59:37Z</time>
      </trkpt>
      <trkpt lat="42.97181" lon="0.25705">
        <ele>1191.21</ele>
        <time>2020-02-22T13:59:49Z</time>
      </trkpt>
      <trkpt lat="42.97189" lon="0.25695">
        <ele>1189.77</ele>
        <time>2020-02-22T13:59:59Z</time>
      </trkpt>
      <trkpt lat="42.97185" lon="0.2569">
        <ele>1187.85</ele>
        <time>2020-02-22T14:00:12Z</time>
      </trkpt>
      <trkpt lat="42.9719" lon="0.25684">
        <ele>1186.4</ele>
        <time>2020-02-22T14:00:25Z</time>
      </trkpt>
      <trkpt lat="42.97198" lon="0.25678">
        <ele>1185.92</ele>
        <time>2020-02-22T14:00:35Z</time>
      </trkpt>
      <trkpt lat="42.97207" lon="0.25672">
        <ele>1185.44</ele>
        <time>2020-02-22T14:00:45Z</time>
      </trkpt>
      <trkpt lat="42.97215" lon="0.25666">
        <ele>1184</ele>
        <time>2020-02-22T14:00:56Z</time>
      </trkpt>
      <trkpt lat="42.97219" lon="0.25655">
        <ele>1183.52</ele>
        <time>2020-02-22T14:01:12Z</time>
      </trkpt>
      <trkpt lat="42.97227" lon="0.25646">
        <ele>1184.48</ele>
        <time>2020-02-22T14:01:23Z</time>
      </trkpt>
      <trkpt lat="42.97227" lon="0.25648">
        <ele>1184.48</ele>
        <time>2020-02-22T14:01:58Z</time>
      </trkpt>
      <trkpt lat="42.9722" lon="0.25652">
        <ele>1183.04</ele>
        <time>2020-02-22T14:02:17Z</time>
      </trkpt>
      <trkpt lat="42.97211" lon="0.25647">
        <ele>1181.6</ele>
        <time>2020-02-22T14:02:31Z</time>
      </trkpt>
      <trkpt lat="42.97201" lon="0.25644">
        <ele>1179.19</ele>
        <time>2020-02-22T14:02:44Z</time>
      </trkpt>
      <trkpt lat="42.97191" lon="0.25639">
        <ele>1176.79</ele>
        <time>2020-02-22T14:02:58Z</time>
      </trkpt>
      <trkpt lat="42.97175" lon="0.25641">
        <ele>1174.87</ele>
        <time>2020-02-22T14:03:12Z</time>
      </trkpt>
      <trkpt lat="42.97165" lon="0.25632">
        <ele>1172.47</ele>
        <time>2020-02-22T14:03:27Z</time>
      </trkpt>
      <trkpt lat="42.97155" lon="0.25624">
        <ele>1171.02</ele>
        <time>2020-02-22T14:03:43Z</time>
      </trkpt>
      <trkpt lat="42.9715" lon="0.25605">
        <ele>1169.58</ele>
        <time>2020-02-22T14:04:03Z</time>
      </trkpt>
      <trkpt lat="42.97153" lon="0.25586">
        <ele>1169.58</ele>
        <time>2020-02-22T14:04:26Z</time>
      </trkpt>
      <trkpt lat="42.97152" lon="0.25585">
        <ele>1169.58</ele>
        <time>2020-02-22T14:05:07Z</time>
      </trkpt>
      <trkpt lat="42.97147" lon="0.25592">
        <ele>1169.58</ele>
        <time>2020-02-22T14:05:32Z</time>
      </trkpt>
      <trkpt lat="42.9714" lon="0.25602">
        <ele>1168.14</ele>
        <time>2020-02-22T14:06:21Z</time>
      </trkpt>
      <trkpt lat="42.9713" lon="0.25599">
        <ele>1166.7</ele>
        <time>2020-02-22T14:06:44Z</time>
      </trkpt>
      <trkpt lat="42.97123" lon="0.25592">
        <ele>1165.26</ele>
        <time>2020-02-22T14:07:00Z</time>
      </trkpt>
      <trkpt lat="42.97117" lon="0.25586">
        <ele>1163.33</ele>
        <time>2020-02-22T14:07:14Z</time>
      </trkpt>
      <trkpt lat="42.97109" lon="0.2558">
        <ele>1160.45</ele>
        <time>2020-02-22T14:07:27Z</time>
      </trkpt>
      <trkpt lat="42.97102" lon="0.25564">
        <ele>1158.05</ele>
        <time>2020-02-22T14:07:42Z</time>
      </trkpt>
      <trkpt lat="42.97097" lon="0.25546">
        <ele>1156.12</ele>
        <time>2020-02-22T14:07:53Z</time>
      </trkpt>
      <trkpt lat="42.97093" lon="0.2553">
        <ele>1155.64</ele>
        <time>2020-02-22T14:08:02Z</time>
      </trkpt>
      <trkpt lat="42.97091" lon="0.25514">
        <ele>1154.68</ele>
        <time>2020-02-22T14:08:15Z</time>
      </trkpt>
      <trkpt lat="42.97089" lon="0.255">
        <ele>1152.76</ele>
        <time>2020-02-22T14:08:25Z</time>
      </trkpt>
      <trkpt lat="42.97087" lon="0.25485">
        <ele>1150.35</ele>
        <time>2020-02-22T14:08:38Z</time>
      </trkpt>
      <trkpt lat="42.97079" lon="0.25475">
        <ele>1149.39</ele>
        <time>2020-02-22T14:08:49Z</time>
      </trkpt>
      <trkpt lat="42.97076" lon="0.2545">
        <ele>1146.51</ele>
        <time>2020-02-22T14:09:15Z</time>
      </trkpt>
      <trkpt lat="42.9708" lon="0.25428">
        <ele>1142.66</ele>
        <time>2020-02-22T14:09:34Z</time>
      </trkpt>
      <trkpt lat="42.97088" lon="0.25407">
        <ele>1140.26</ele>
        <time>2020-02-22T14:09:52Z</time>
      </trkpt>
      <trkpt lat="42.97082" lon="0.25387">
        <ele>1138.82</ele>
        <time>2020-02-22T14:10:10Z</time>
      </trkpt>
      <trkpt lat="42.97091" lon="0.25365">
        <ele>1136.42</ele>
        <time>2020-02-22T14:10:25Z</time>
      </trkpt>
      <trkpt lat="42.97096" lon="0.25342">
        <ele>1134.49</ele>
        <time>2020-02-22T14:10:41Z</time>
      </trkpt>
      <trkpt lat="42.97103" lon="0.25318">
        <ele>1134.49</ele>
        <time>2020-02-22T14:10:58Z</time>
      </trkpt>
      <trkpt lat="42.97102" lon="0.25299">
        <ele>1134.97</ele>
        <time>2020-02-22T14:11:15Z</time>
      </trkpt>
      <trkpt lat="42.97103" lon="0.2528">
        <ele>1134.97</ele>
        <time>2020-02-22T14:11:28Z</time>
      </trkpt>
      <trkpt lat="42.97105" lon="0.25255">
        <ele>1131.13</ele>
        <time>2020-02-22T14:11:44Z</time>
      </trkpt>
      <trkpt lat="42.97104" lon="0.25235">
        <ele>1127.28</ele>
        <time>2020-02-22T14:11:56Z</time>
      </trkpt>
      <trkpt lat="42.97102" lon="0.25212">
        <ele>1124.88</ele>
        <time>2020-02-22T14:12:10Z</time>
      </trkpt>
      <trkpt lat="42.97109" lon="0.25195">
        <ele>1120.55</ele>
        <time>2020-02-22T14:12:19Z</time>
      </trkpt>
      <trkpt lat="42.97115" lon="0.25177">
        <ele>1118.15</ele>
        <time>2020-02-22T14:12:29Z</time>
      </trkpt>
      <trkpt lat="42.9712" lon="0.2516">
        <ele>1117.19</ele>
        <time>2020-02-22T14:12:39Z</time>
      </trkpt>
      <trkpt lat="42.97126" lon="0.2514">
        <ele>1116.23</ele>
        <time>2020-02-22T14:12:51Z</time>
      </trkpt>
      <trkpt lat="42.97131" lon="0.25123">
        <ele>1112.86</ele>
        <time>2020-02-22T14:13:05Z</time>
      </trkpt>
      <trkpt lat="42.9714" lon="0.25111">
        <ele>1109.98</ele>
        <time>2020-02-22T14:13:19Z</time>
      </trkpt>
      <trkpt lat="42.97146" lon="0.25098">
        <ele>1106.13</ele>
        <time>2020-02-22T14:13:34Z</time>
      </trkpt>
      <trkpt lat="42.97154" lon="0.25089">
        <ele>1102.77</ele>
        <time>2020-02-22T14:13:44Z</time>
      </trkpt>
      <trkpt lat="42.9716" lon="0.25069">
        <ele>1097.96</ele>
        <time>2020-02-22T14:13:56Z</time>
      </trkpt>
      <trkpt lat="42.97167" lon="0.25046">
        <ele>1092.2</ele>
        <time>2020-02-22T14:14:16Z</time>
      </trkpt>
      <trkpt lat="42.9718" lon="0.25039">
        <ele>1086.43</ele>
        <time>2020-02-22T14:14:34Z</time>
      </trkpt>
      <trkpt lat="42.97193" lon="0.25029">
        <ele>1083.06</ele>
        <time>2020-02-22T14:14:49Z</time>
      </trkpt>
      <trkpt lat="42.97208" lon="0.25013">
        <ele>1078.74</ele>
        <time>2020-02-22T14:15:11Z</time>
      </trkpt>
      <trkpt lat="42.97221" lon="0.24994">
        <ele>1073.45</ele>
        <time>2020-02-22T14:15:28Z</time>
      </trkpt>
      <trkpt lat="42.97228" lon="0.24978">
        <ele>1070.57</ele>
        <time>2020-02-22T14:15:40Z</time>
      </trkpt>
      <trkpt lat="42.97231" lon="0.2496">
        <ele>1067.68</ele>
        <time>2020-02-22T14:15:50Z</time>
      </trkpt>
      <trkpt lat="42.97238" lon="0.24945">
        <ele>1063.84</ele>
        <time>2020-02-22T14:16:02Z</time>
      </trkpt>
      <trkpt lat="42.9724" lon="0.24928">
        <ele>1059.51</ele>
        <time>2020-02-22T14:16:15Z</time>
      </trkpt>
      <trkpt lat="42.97244" lon="0.24906">
        <ele>1055.18</ele>
        <time>2020-02-22T14:16:28Z</time>
      </trkpt>
      <trkpt lat="42.9725" lon="0.24888">
        <ele>1051.82</ele>
        <time>2020-02-22T14:16:41Z</time>
      </trkpt>
      <trkpt lat="42.97256" lon="0.24869">
        <ele>1047.97</ele>
        <time>2020-02-22T14:16:55Z</time>
      </trkpt>
      <trkpt lat="42.9726" lon="0.2485">
        <ele>1044.13</ele>
        <time>2020-02-22T14:17:10Z</time>
      </trkpt>
      <trkpt lat="42.97265" lon="0.24834">
        <ele>1041.73</ele>
        <time>2020-02-22T14:17:22Z</time>
      </trkpt>
      <trkpt lat="42.97269" lon="0.24816">
        <ele>1038.84</ele>
        <time>2020-02-22T14:17:35Z</time>
      </trkpt>
      <trkpt lat="42.97272" lon="0.24798">
        <ele>1035</ele>
        <time>2020-02-22T14:17:50Z</time>
      </trkpt>
      <trkpt lat="42.97275" lon="0.24776">
        <ele>1032.11</ele>
        <time>2020-02-22T14:18:05Z</time>
      </trkpt>
      <trkpt lat="42.97279" lon="0.24755">
        <ele>1028.27</ele>
        <time>2020-02-22T14:18:21Z</time>
      </trkpt>
      <trkpt lat="42.97285" lon="0.24737">
        <ele>1024.42</ele>
        <time>2020-02-22T14:18:36Z</time>
      </trkpt>
      <trkpt lat="42.97295" lon="0.24719">
        <ele>1018.17</ele>
        <time>2020-02-22T14:18:53Z</time>
      </trkpt>
      <trkpt lat="42.97299" lon="0.24695">
        <ele>1014.33</ele>
        <time>2020-02-22T14:19:09Z</time>
      </trkpt>
      <trkpt lat="42.97302" lon="0.24673">
        <ele>1010.48</ele>
        <time>2020-02-22T14:19:29Z</time>
      </trkpt>
      <trkpt lat="42.97306" lon="0.24648">
        <ele>1005.68</ele>
        <time>2020-02-22T14:19:49Z</time>
      </trkpt>
      <trkpt lat="42.97313" lon="0.24629">
        <ele>1001.83</ele>
        <time>2020-02-22T14:20:04Z</time>
      </trkpt>
      <trkpt lat="42.97315" lon="0.2461">
        <ele>998.47</ele>
        <time>2020-02-22T14:20:20Z</time>
      </trkpt>
      <trkpt lat="42.97321" lon="0.24589">
        <ele>994.62</ele>
        <time>2020-02-22T14:20:36Z</time>
      </trkpt>
      <trkpt lat="42.97323" lon="0.24569">
        <ele>991.26</ele>
        <time>2020-02-22T14:20:52Z</time>
      </trkpt>
      <trkpt lat="42.97329" lon="0.24548">
        <ele>985.49</ele>
        <time>2020-02-22T14:21:09Z</time>
      </trkpt>
      <trkpt lat="42.97336" lon="0.2453">
        <ele>981.16</ele>
        <time>2020-02-22T14:21:24Z</time>
      </trkpt>
      <trkpt lat="42.97333" lon="0.24512">
        <ele>978.76</ele>
        <time>2020-02-22T14:21:37Z</time>
      </trkpt>
      <trkpt lat="42.97332" lon="0.24496">
        <ele>975.88</ele>
        <time>2020-02-22T14:21:50Z</time>
      </trkpt>
      <trkpt lat="42.9734" lon="0.24483">
        <ele>973.47</ele>
        <time>2020-02-22T14:22:01Z</time>
      </trkpt>
      <trkpt lat="42.97345" lon="0.24472">
        <ele>971.07</ele>
        <time>2020-02-22T14:22:12Z</time>
      </trkpt>
      <trkpt lat="42.97349" lon="0.24458">
        <ele>968.18</ele>
        <time>2020-02-22T14:22:24Z</time>
      </trkpt>
      <trkpt lat="42.97357" lon="0.24446">
        <ele>964.82</ele>
        <time>2020-02-22T14:22:36Z</time>
      </trkpt>
      <trkpt lat="42.97364" lon="0.24431">
        <ele>960.01</ele>
        <time>2020-02-22T14:22:53Z</time>
      </trkpt>
      <trkpt lat="42.9738" lon="0.24428">
        <ele>956.65</ele>
        <time>2020-02-22T14:23:09Z</time>
      </trkpt>
      <trkpt lat="42.97414" lon="0.24427">
        <ele>946.56</ele>
        <time>2020-02-22T14:23:55Z</time>
      </trkpt>
      <trkpt lat="42.97437" lon="0.24429">
        <ele>938.86</ele>
        <time>2020-02-22T14:24:28Z</time>
      </trkpt>
      <trkpt lat="42.9745" lon="0.24438">
        <ele>934.06</ele>
        <time>2020-02-22T14:24:48Z</time>
      </trkpt>
      <trkpt lat="42.97461" lon="0.24449">
        <ele>926.37</ele>
        <time>2020-02-22T14:25:16Z</time>
      </trkpt>
      <trkpt lat="42.97475" lon="0.24451">
        <ele>924.45</ele>
        <time>2020-02-22T14:25:28Z</time>
      </trkpt>
      <trkpt lat="42.97477" lon="0.24435">
        <ele>923</ele>
        <time>2020-02-22T14:25:41Z</time>
      </trkpt>
      <trkpt lat="42.97478" lon="0.24418">
        <ele>921.08</ele>
        <time>2020-02-22T14:25:52Z</time>
      </trkpt>
      <trkpt lat="42.97481" lon="0.24405">
        <ele>919.16</ele>
        <time>2020-02-22T14:26:03Z</time>
      </trkpt>
      <trkpt lat="42.97484" lon="0.2439">
        <ele>918.2</ele>
        <time>2020-02-22T14:26:14Z</time>
      </trkpt>
      <trkpt lat="42.97489" lon="0.24378">
        <ele>918.2</ele>
        <time>2020-02-22T14:26:25Z</time>
      </trkpt>
      <trkpt lat="42.97498" lon="0.24372">
        <ele>917.24</ele>
        <time>2020-02-22T14:26:35Z</time>
      </trkpt>
      <trkpt lat="42.97507" lon="0.24364">
        <ele>915.79</ele>
        <time>2020-02-22T14:26:46Z</time>
      </trkpt>
      <trkpt lat="42.97515" lon="0.24356">
        <ele>915.31</ele>
        <time>2020-02-22T14:26:56Z</time>
      </trkpt>
      <trkpt lat="42.97525" lon="0.24357">
        <ele>913.87</ele>
        <time>2020-02-22T14:27:07Z</time>
      </trkpt>
      <trkpt lat="42.97539" lon="0.24359">
        <ele>911.95</ele>
        <time>2020-02-22T14:27:20Z</time>
      </trkpt>
      <trkpt lat="42.9755" lon="0.24359">
        <ele>910.99</ele>
        <time>2020-02-22T14:27:32Z</time>
      </trkpt>
    </trkseg>
  </trk>
</gpx>